<?xml version="1.0" encoding="UTF-8" standalone="no" ?>
<gpx xmlns="http://www.topografix.com/GPX/1/1" xmlns:xsi="http://www.w3.org/2001/XMLSchema-instance" xsi:schemaLocation="http://www.topografix.com/GPX/1/1 http://www.topografix.com/GPX/1/1/gpx.xsd" version="1.1" creator="VisuGPX - https://www.visugpx.com">
  <metadata>
    <name>Coteau plateau de Chenôve </name>
  </metadata>
  <trk>
    <name><![CDATA[23 févr. 2025 10:40:42]]></name>
    <trkseg>
      <trkpt lat="47.30294" lon="5.0001">
        <ele>378.01</ele>
        <time>2025-02-23T09:40:50Z</time>
      </trkpt>
      <trkpt lat="47.30304" lon="5.0001">
        <ele>379.38</ele>
        <time>2025-02-23T09:40:57Z</time>
      </trkpt>
      <trkpt lat="47.30304" lon="5.00024">
        <ele>383.81</ele>
        <time>2025-02-23T09:41:08Z</time>
      </trkpt>
      <trkpt lat="47.30304" lon="5.00038">
        <ele>379.82</ele>
        <time>2025-02-23T09:41:18Z</time>
      </trkpt>
      <trkpt lat="47.303" lon="5.00051">
        <ele>377.66</ele>
        <time>2025-02-23T09:41:27Z</time>
      </trkpt>
      <trkpt lat="47.30295" lon="5.00063">
        <ele>378.28</ele>
        <time>2025-02-23T09:41:35Z</time>
      </trkpt>
      <trkpt lat="47.30289" lon="5.00074">
        <ele>377.99</ele>
        <time>2025-02-23T09:41:44Z</time>
      </trkpt>
      <trkpt lat="47.30284" lon="5.00086">
        <ele>375.75</ele>
        <time>2025-02-23T09:41:53Z</time>
      </trkpt>
      <trkpt lat="47.30284" lon="5.001">
        <ele>376.44</ele>
        <time>2025-02-23T09:42:01Z</time>
      </trkpt>
      <trkpt lat="47.30291" lon="5.00109">
        <ele>377.28</ele>
        <time>2025-02-23T09:42:14Z</time>
      </trkpt>
      <trkpt lat="47.30302" lon="5.00106">
        <ele>377.71</ele>
        <time>2025-02-23T09:42:20Z</time>
      </trkpt>
      <trkpt lat="47.30307" lon="5.00093">
        <ele>377.5</ele>
        <time>2025-02-23T09:42:30Z</time>
      </trkpt>
      <trkpt lat="47.30317" lon="5.0009">
        <ele>374.57</ele>
        <time>2025-02-23T09:42:40Z</time>
      </trkpt>
      <trkpt lat="47.30327" lon="5.00091">
        <ele>372.01</ele>
        <time>2025-02-23T09:42:49Z</time>
      </trkpt>
      <trkpt lat="47.30337" lon="5.00091">
        <ele>371.46</ele>
        <time>2025-02-23T09:42:55Z</time>
      </trkpt>
      <trkpt lat="47.30347" lon="5.0009">
        <ele>373.16</ele>
        <time>2025-02-23T09:43:05Z</time>
      </trkpt>
      <trkpt lat="47.30356" lon="5.00086">
        <ele>376.12</ele>
        <time>2025-02-23T09:43:15Z</time>
      </trkpt>
      <trkpt lat="47.30363" lon="5.00077">
        <ele>375.24</ele>
        <time>2025-02-23T09:43:24Z</time>
      </trkpt>
      <trkpt lat="47.30365" lon="5.00064">
        <ele>377.08</ele>
        <time>2025-02-23T09:43:33Z</time>
      </trkpt>
      <trkpt lat="47.30368" lon="5.00051">
        <ele>381.08</ele>
        <time>2025-02-23T09:43:44Z</time>
      </trkpt>
      <trkpt lat="47.30371" lon="5.00038">
        <ele>381.15</ele>
        <time>2025-02-23T09:43:55Z</time>
      </trkpt>
      <trkpt lat="47.30371" lon="5.00024">
        <ele>379.74</ele>
        <time>2025-02-23T09:44:07Z</time>
      </trkpt>
      <trkpt lat="47.30371" lon="5.0001">
        <ele>384.12</ele>
        <time>2025-02-23T09:44:19Z</time>
      </trkpt>
      <trkpt lat="47.30376" lon="4.99998">
        <ele>385.49</ele>
        <time>2025-02-23T09:44:29Z</time>
      </trkpt>
      <trkpt lat="47.30383" lon="4.99987">
        <ele>389.93</ele>
        <time>2025-02-23T09:44:39Z</time>
      </trkpt>
      <trkpt lat="47.30385" lon="4.99973">
        <ele>390.77</ele>
        <time>2025-02-23T09:44:50Z</time>
      </trkpt>
      <trkpt lat="47.30388" lon="4.99961">
        <ele>391.9</ele>
        <time>2025-02-23T09:45:03Z</time>
      </trkpt>
      <trkpt lat="47.30391" lon="4.99948">
        <ele>394.21</ele>
        <time>2025-02-23T09:45:16Z</time>
      </trkpt>
      <trkpt lat="47.30396" lon="4.99935">
        <ele>398.15</ele>
        <time>2025-02-23T09:45:28Z</time>
      </trkpt>
      <trkpt lat="47.30399" lon="4.99922">
        <ele>397.49</ele>
        <time>2025-02-23T09:45:38Z</time>
      </trkpt>
      <trkpt lat="47.30394" lon="4.9991">
        <ele>398.61</ele>
        <time>2025-02-23T09:45:48Z</time>
      </trkpt>
      <trkpt lat="47.30384" lon="4.99904">
        <ele>401.47</ele>
        <time>2025-02-23T09:45:57Z</time>
      </trkpt>
      <trkpt lat="47.30375" lon="4.99899">
        <ele>400.18</ele>
        <time>2025-02-23T09:46:05Z</time>
      </trkpt>
      <trkpt lat="47.30366" lon="4.99896">
        <ele>396.79</ele>
        <time>2025-02-23T09:46:15Z</time>
      </trkpt>
      <trkpt lat="47.30356" lon="4.99896">
        <ele>397.86</ele>
        <time>2025-02-23T09:46:24Z</time>
      </trkpt>
      <trkpt lat="47.30347" lon="4.99894">
        <ele>397.04</ele>
        <time>2025-02-23T09:47:10Z</time>
      </trkpt>
      <trkpt lat="47.30338" lon="4.99891">
        <ele>398.99</ele>
        <time>2025-02-23T09:47:20Z</time>
      </trkpt>
      <trkpt lat="47.30328" lon="4.9989">
        <ele>399.5</ele>
        <time>2025-02-23T09:47:32Z</time>
      </trkpt>
      <trkpt lat="47.3032" lon="4.99885">
        <ele>397.56</ele>
        <time>2025-02-23T09:48:01Z</time>
      </trkpt>
      <trkpt lat="47.30311" lon="4.99881">
        <ele>395.15</ele>
        <time>2025-02-23T09:48:12Z</time>
      </trkpt>
      <trkpt lat="47.30302" lon="4.99875">
        <ele>394.97</ele>
        <time>2025-02-23T09:48:22Z</time>
      </trkpt>
      <trkpt lat="47.30293" lon="4.99872">
        <ele>392.68</ele>
        <time>2025-02-23T09:48:30Z</time>
      </trkpt>
      <trkpt lat="47.30284" lon="4.9987">
        <ele>392.54</ele>
        <time>2025-02-23T09:48:39Z</time>
      </trkpt>
      <trkpt lat="47.30274" lon="4.99866">
        <ele>392.14</ele>
        <time>2025-02-23T09:48:49Z</time>
      </trkpt>
      <trkpt lat="47.30265" lon="4.99863">
        <ele>390.69</ele>
        <time>2025-02-23T09:48:59Z</time>
      </trkpt>
      <trkpt lat="47.30257" lon="4.99857">
        <ele>392.66</ele>
        <time>2025-02-23T09:49:10Z</time>
      </trkpt>
      <trkpt lat="47.30249" lon="4.9985">
        <ele>394.21</ele>
        <time>2025-02-23T09:49:18Z</time>
      </trkpt>
      <trkpt lat="47.30241" lon="4.99842">
        <ele>394.45</ele>
        <time>2025-02-23T09:49:27Z</time>
      </trkpt>
      <trkpt lat="47.30233" lon="4.99835">
        <ele>391.42</ele>
        <time>2025-02-23T09:49:38Z</time>
      </trkpt>
      <trkpt lat="47.30232" lon="4.99822">
        <ele>392.05</ele>
        <time>2025-02-23T09:49:52Z</time>
      </trkpt>
      <trkpt lat="47.30229" lon="4.99809">
        <ele>389.25</ele>
        <time>2025-02-23T09:50:06Z</time>
      </trkpt>
      <trkpt lat="47.30223" lon="4.99799">
        <ele>391.24</ele>
        <time>2025-02-23T09:50:17Z</time>
      </trkpt>
      <trkpt lat="47.30216" lon="4.99788">
        <ele>392.95</ele>
        <time>2025-02-23T09:50:27Z</time>
      </trkpt>
      <trkpt lat="47.30213" lon="4.99775">
        <ele>395.2</ele>
        <time>2025-02-23T09:50:38Z</time>
      </trkpt>
      <trkpt lat="47.30207" lon="4.99764">
        <ele>394.09</ele>
        <time>2025-02-23T09:50:47Z</time>
      </trkpt>
      <trkpt lat="47.30199" lon="4.99756">
        <ele>394.65</ele>
        <time>2025-02-23T09:50:55Z</time>
      </trkpt>
      <trkpt lat="47.30193" lon="4.99745">
        <ele>393.16</ele>
        <time>2025-02-23T09:51:03Z</time>
      </trkpt>
      <trkpt lat="47.3019" lon="4.99732">
        <ele>391.19</ele>
        <time>2025-02-23T09:51:12Z</time>
      </trkpt>
      <trkpt lat="47.30188" lon="4.99718">
        <ele>391.99</ele>
        <time>2025-02-23T09:51:22Z</time>
      </trkpt>
      <trkpt lat="47.30185" lon="4.99706">
        <ele>395.2</ele>
        <time>2025-02-23T09:51:31Z</time>
      </trkpt>
      <trkpt lat="47.30179" lon="4.99696">
        <ele>394.23</ele>
        <time>2025-02-23T09:51:41Z</time>
      </trkpt>
      <trkpt lat="47.30174" lon="4.99684">
        <ele>392.04</ele>
        <time>2025-02-23T09:51:49Z</time>
      </trkpt>
      <trkpt lat="47.3017" lon="4.99672">
        <ele>393.72</ele>
        <time>2025-02-23T09:51:59Z</time>
      </trkpt>
      <trkpt lat="47.30164" lon="4.99661">
        <ele>389.93</ele>
        <time>2025-02-23T09:52:08Z</time>
      </trkpt>
      <trkpt lat="47.30157" lon="4.99652">
        <ele>387.85</ele>
        <time>2025-02-23T09:52:29Z</time>
      </trkpt>
      <trkpt lat="47.30149" lon="4.99643">
        <ele>388.13</ele>
        <time>2025-02-23T09:52:38Z</time>
      </trkpt>
      <trkpt lat="47.30141" lon="4.99637">
        <ele>387.25</ele>
        <time>2025-02-23T09:52:48Z</time>
      </trkpt>
      <trkpt lat="47.30134" lon="4.99626">
        <ele>387.39</ele>
        <time>2025-02-23T09:53:01Z</time>
      </trkpt>
      <trkpt lat="47.30126" lon="4.99618">
        <ele>389.25</ele>
        <time>2025-02-23T09:53:09Z</time>
      </trkpt>
      <trkpt lat="47.30117" lon="4.99617">
        <ele>391.12</ele>
        <time>2025-02-23T09:53:22Z</time>
      </trkpt>
      <trkpt lat="47.30109" lon="4.99614">
        <ele>389.97</ele>
        <time>2025-02-23T09:53:44Z</time>
      </trkpt>
      <trkpt lat="47.30099" lon="4.99613">
        <ele>386.98</ele>
        <time>2025-02-23T09:53:53Z</time>
      </trkpt>
      <trkpt lat="47.30089" lon="4.99613">
        <ele>379.11</ele>
        <time>2025-02-23T09:54:10Z</time>
      </trkpt>
      <trkpt lat="47.30089" lon="4.996">
        <ele>381.48</ele>
        <time>2025-02-23T09:55:15Z</time>
      </trkpt>
      <trkpt lat="47.30097" lon="4.99583">
        <ele>382.15</ele>
        <time>2025-02-23T09:55:30Z</time>
      </trkpt>
      <trkpt lat="47.30097" lon="4.99569">
        <ele>380.21</ele>
        <time>2025-02-23T09:55:40Z</time>
      </trkpt>
      <trkpt lat="47.30101" lon="4.99557">
        <ele>387.18</ele>
        <time>2025-02-23T09:55:50Z</time>
      </trkpt>
      <trkpt lat="47.30103" lon="4.99543">
        <ele>389.02</ele>
        <time>2025-02-23T09:56:01Z</time>
      </trkpt>
      <trkpt lat="47.30103" lon="4.99529">
        <ele>390.37</ele>
        <time>2025-02-23T09:56:12Z</time>
      </trkpt>
      <trkpt lat="47.30101" lon="4.99516">
        <ele>394.4</ele>
        <time>2025-02-23T09:56:25Z</time>
      </trkpt>
      <trkpt lat="47.30101" lon="4.99501">
        <ele>394.61</ele>
        <time>2025-02-23T09:56:36Z</time>
      </trkpt>
      <trkpt lat="47.30105" lon="4.99488">
        <ele>392.68</ele>
        <time>2025-02-23T09:56:48Z</time>
      </trkpt>
      <trkpt lat="47.30105" lon="4.99474">
        <ele>396.71</ele>
        <time>2025-02-23T09:57:00Z</time>
      </trkpt>
      <trkpt lat="47.30108" lon="4.99461">
        <ele>400.76</ele>
        <time>2025-02-23T09:57:10Z</time>
      </trkpt>
      <trkpt lat="47.30111" lon="4.99448">
        <ele>401.36</ele>
        <time>2025-02-23T09:57:21Z</time>
      </trkpt>
      <trkpt lat="47.30106" lon="4.99436">
        <ele>404.98</ele>
        <time>2025-02-23T09:57:33Z</time>
      </trkpt>
      <trkpt lat="47.30103" lon="4.99424">
        <ele>405.89</ele>
        <time>2025-02-23T09:57:46Z</time>
      </trkpt>
      <trkpt lat="47.30102" lon="4.9941">
        <ele>408.65</ele>
        <time>2025-02-23T09:57:59Z</time>
      </trkpt>
      <trkpt lat="47.30098" lon="4.99397">
        <ele>408.93</ele>
        <time>2025-02-23T09:58:10Z</time>
      </trkpt>
      <trkpt lat="47.30098" lon="4.99383">
        <ele>411.28</ele>
        <time>2025-02-23T09:58:24Z</time>
      </trkpt>
      <trkpt lat="47.30095" lon="4.99369">
        <ele>409.8</ele>
        <time>2025-02-23T09:58:38Z</time>
      </trkpt>
      <trkpt lat="47.30096" lon="4.99355">
        <ele>413.04</ele>
        <time>2025-02-23T09:58:49Z</time>
      </trkpt>
      <trkpt lat="47.30097" lon="4.99342">
        <ele>411.73</ele>
        <time>2025-02-23T09:59:04Z</time>
      </trkpt>
      <trkpt lat="47.30094" lon="4.99329">
        <ele>413.91</ele>
        <time>2025-02-23T09:59:20Z</time>
      </trkpt>
      <trkpt lat="47.30086" lon="4.99317">
        <ele>412.7</ele>
        <time>2025-02-23T09:59:32Z</time>
      </trkpt>
      <trkpt lat="47.30078" lon="4.99309">
        <ele>414.19</ele>
        <time>2025-02-23T09:59:41Z</time>
      </trkpt>
      <trkpt lat="47.3007" lon="4.993">
        <ele>416.99</ele>
        <time>2025-02-23T09:59:52Z</time>
      </trkpt>
      <trkpt lat="47.30062" lon="4.99293">
        <ele>419.23</ele>
        <time>2025-02-23T10:00:04Z</time>
      </trkpt>
      <trkpt lat="47.30052" lon="4.99294">
        <ele>417.18</ele>
        <time>2025-02-23T10:00:18Z</time>
      </trkpt>
      <trkpt lat="47.30044" lon="4.99289">
        <ele>415.17</ele>
        <time>2025-02-23T10:00:30Z</time>
      </trkpt>
      <trkpt lat="47.30035" lon="4.99288">
        <ele>416.38</ele>
        <time>2025-02-23T10:00:43Z</time>
      </trkpt>
      <trkpt lat="47.30027" lon="4.99281">
        <ele>416.87</ele>
        <time>2025-02-23T10:00:56Z</time>
      </trkpt>
      <trkpt lat="47.30018" lon="4.99274">
        <ele>420</ele>
        <time>2025-02-23T10:01:07Z</time>
      </trkpt>
      <trkpt lat="47.30008" lon="4.99269">
        <ele>420.43</ele>
        <time>2025-02-23T10:01:17Z</time>
      </trkpt>
      <trkpt lat="47.29999" lon="4.99264">
        <ele>421.21</ele>
        <time>2025-02-23T10:01:26Z</time>
      </trkpt>
      <trkpt lat="47.29991" lon="4.99257">
        <ele>423.53</ele>
        <time>2025-02-23T10:01:37Z</time>
      </trkpt>
      <trkpt lat="47.29982" lon="4.99252">
        <ele>422.68</ele>
        <time>2025-02-23T10:01:48Z</time>
      </trkpt>
      <trkpt lat="47.29973" lon="4.99252">
        <ele>423.03</ele>
        <time>2025-02-23T10:01:56Z</time>
      </trkpt>
      <trkpt lat="47.29963" lon="4.99256">
        <ele>420.59</ele>
        <time>2025-02-23T10:02:04Z</time>
      </trkpt>
      <trkpt lat="47.29955" lon="4.99261">
        <ele>418.93</ele>
        <time>2025-02-23T10:02:11Z</time>
      </trkpt>
      <trkpt lat="47.29946" lon="4.99267">
        <ele>420.86</ele>
        <time>2025-02-23T10:02:19Z</time>
      </trkpt>
      <trkpt lat="47.29938" lon="4.99271">
        <ele>420.3</ele>
        <time>2025-02-23T10:02:28Z</time>
      </trkpt>
      <trkpt lat="47.29928" lon="4.99272">
        <ele>417.01</ele>
        <time>2025-02-23T10:02:36Z</time>
      </trkpt>
      <trkpt lat="47.29918" lon="4.99272">
        <ele>420.92</ele>
        <time>2025-02-23T10:02:46Z</time>
      </trkpt>
      <trkpt lat="47.29908" lon="4.99277">
        <ele>419.16</ele>
        <time>2025-02-23T10:02:56Z</time>
      </trkpt>
      <trkpt lat="47.29901" lon="4.99287">
        <ele>418.04</ele>
        <time>2025-02-23T10:03:03Z</time>
      </trkpt>
      <trkpt lat="47.29892" lon="4.99291">
        <ele>419.6</ele>
        <time>2025-02-23T10:03:11Z</time>
      </trkpt>
      <trkpt lat="47.29883" lon="4.99295">
        <ele>418.2</ele>
        <time>2025-02-23T10:03:21Z</time>
      </trkpt>
      <trkpt lat="47.29873" lon="4.99293">
        <ele>421.26</ele>
        <time>2025-02-23T10:03:32Z</time>
      </trkpt>
      <trkpt lat="47.29863" lon="4.99294">
        <ele>419.38</ele>
        <time>2025-02-23T10:03:41Z</time>
      </trkpt>
      <trkpt lat="47.29856" lon="4.99286">
        <ele>422.11</ele>
        <time>2025-02-23T10:03:53Z</time>
      </trkpt>
      <trkpt lat="47.29847" lon="4.99281">
        <ele>422.46</ele>
        <time>2025-02-23T10:04:02Z</time>
      </trkpt>
      <trkpt lat="47.29838" lon="4.99276">
        <ele>424.1</ele>
        <time>2025-02-23T10:04:10Z</time>
      </trkpt>
      <trkpt lat="47.2983" lon="4.99269">
        <ele>426.06</ele>
        <time>2025-02-23T10:04:22Z</time>
      </trkpt>
      <trkpt lat="47.29822" lon="4.99263">
        <ele>424.43</ele>
        <time>2025-02-23T10:04:32Z</time>
      </trkpt>
      <trkpt lat="47.29815" lon="4.99252">
        <ele>422.68</ele>
        <time>2025-02-23T10:04:44Z</time>
      </trkpt>
      <trkpt lat="47.29809" lon="4.99242">
        <ele>419.92</ele>
        <time>2025-02-23T10:04:53Z</time>
      </trkpt>
      <trkpt lat="47.29799" lon="4.99237">
        <ele>420.07</ele>
        <time>2025-02-23T10:05:01Z</time>
      </trkpt>
      <trkpt lat="47.2979" lon="4.99232">
        <ele>423.68</ele>
        <time>2025-02-23T10:05:10Z</time>
      </trkpt>
      <trkpt lat="47.29787" lon="4.99218">
        <ele>426.8</ele>
        <time>2025-02-23T10:05:19Z</time>
      </trkpt>
      <trkpt lat="47.29781" lon="4.99207">
        <ele>427.5</ele>
        <time>2025-02-23T10:05:30Z</time>
      </trkpt>
      <trkpt lat="47.29777" lon="4.99194">
        <ele>428.4</ele>
        <time>2025-02-23T10:05:40Z</time>
      </trkpt>
      <trkpt lat="47.29775" lon="4.99182">
        <ele>425.12</ele>
        <time>2025-02-23T10:05:53Z</time>
      </trkpt>
      <trkpt lat="47.29776" lon="4.99168">
        <ele>424.43</ele>
        <time>2025-02-23T10:06:04Z</time>
      </trkpt>
      <trkpt lat="47.29778" lon="4.99153">
        <ele>427.02</ele>
        <time>2025-02-23T10:06:15Z</time>
      </trkpt>
      <trkpt lat="47.29783" lon="4.99142">
        <ele>428.15</ele>
        <time>2025-02-23T10:06:27Z</time>
      </trkpt>
      <trkpt lat="47.29784" lon="4.99127">
        <ele>430.14</ele>
        <time>2025-02-23T10:06:37Z</time>
      </trkpt>
      <trkpt lat="47.29779" lon="4.99115">
        <ele>427.95</ele>
        <time>2025-02-23T10:06:45Z</time>
      </trkpt>
      <trkpt lat="47.29772" lon="4.99105">
        <ele>427.28</ele>
        <time>2025-02-23T10:06:54Z</time>
      </trkpt>
      <trkpt lat="47.29767" lon="4.99093">
        <ele>429.86</ele>
        <time>2025-02-23T10:07:01Z</time>
      </trkpt>
      <trkpt lat="47.29765" lon="4.9908">
        <ele>433.63</ele>
        <time>2025-02-23T10:07:08Z</time>
      </trkpt>
      <trkpt lat="47.2976" lon="4.99067">
        <ele>434.95</ele>
        <time>2025-02-23T10:07:18Z</time>
      </trkpt>
      <trkpt lat="47.29752" lon="4.99061">
        <ele>435.42</ele>
        <time>2025-02-23T10:07:27Z</time>
      </trkpt>
      <trkpt lat="47.29744" lon="4.99053">
        <ele>434.34</ele>
        <time>2025-02-23T10:07:36Z</time>
      </trkpt>
      <trkpt lat="47.2974" lon="4.99041">
        <ele>436.17</ele>
        <time>2025-02-23T10:07:47Z</time>
      </trkpt>
      <trkpt lat="47.29735" lon="4.99029">
        <ele>432.11</ele>
        <time>2025-02-23T10:07:56Z</time>
      </trkpt>
      <trkpt lat="47.29728" lon="4.99019">
        <ele>431.3</ele>
        <time>2025-02-23T10:08:04Z</time>
      </trkpt>
      <trkpt lat="47.29721" lon="4.99009">
        <ele>431.3</ele>
        <time>2025-02-23T10:08:11Z</time>
      </trkpt>
      <trkpt lat="47.29715" lon="4.98998">
        <ele>433.55</ele>
        <time>2025-02-23T10:08:18Z</time>
      </trkpt>
      <trkpt lat="47.2971" lon="4.98986">
        <ele>432.56</ele>
        <time>2025-02-23T10:08:31Z</time>
      </trkpt>
      <trkpt lat="47.29707" lon="4.98973">
        <ele>433.09</ele>
        <time>2025-02-23T10:08:39Z</time>
      </trkpt>
      <trkpt lat="47.29704" lon="4.9896">
        <ele>433.07</ele>
        <time>2025-02-23T10:08:48Z</time>
      </trkpt>
      <trkpt lat="47.297" lon="4.98947">
        <ele>434.7</ele>
        <time>2025-02-23T10:08:57Z</time>
      </trkpt>
      <trkpt lat="47.29697" lon="4.98933">
        <ele>433.65</ele>
        <time>2025-02-23T10:09:05Z</time>
      </trkpt>
      <trkpt lat="47.29693" lon="4.98921">
        <ele>431.27</ele>
        <time>2025-02-23T10:09:14Z</time>
      </trkpt>
      <trkpt lat="47.29687" lon="4.9891">
        <ele>433.11</ele>
        <time>2025-02-23T10:09:22Z</time>
      </trkpt>
      <trkpt lat="47.29683" lon="4.98896">
        <ele>431.64</ele>
        <time>2025-02-23T10:09:30Z</time>
      </trkpt>
      <trkpt lat="47.29679" lon="4.98883">
        <ele>435.91</ele>
        <time>2025-02-23T10:09:41Z</time>
      </trkpt>
      <trkpt lat="47.29674" lon="4.98871">
        <ele>434.41</ele>
        <time>2025-02-23T10:09:50Z</time>
      </trkpt>
      <trkpt lat="47.29665" lon="4.98867">
        <ele>434.66</ele>
        <time>2025-02-23T10:09:58Z</time>
      </trkpt>
      <trkpt lat="47.29654" lon="4.98863">
        <ele>433.09</ele>
        <time>2025-02-23T10:10:08Z</time>
      </trkpt>
      <trkpt lat="47.29645" lon="4.9886">
        <ele>429.17</ele>
        <time>2025-02-23T10:10:18Z</time>
      </trkpt>
      <trkpt lat="47.29635" lon="4.98856">
        <ele>430.7</ele>
        <time>2025-02-23T10:10:27Z</time>
      </trkpt>
      <trkpt lat="47.29626" lon="4.98852">
        <ele>428.44</ele>
        <time>2025-02-23T10:10:36Z</time>
      </trkpt>
      <trkpt lat="47.29617" lon="4.98847">
        <ele>426.5</ele>
        <time>2025-02-23T10:10:42Z</time>
      </trkpt>
      <trkpt lat="47.29609" lon="4.98841">
        <ele>427.24</ele>
        <time>2025-02-23T10:10:49Z</time>
      </trkpt>
      <trkpt lat="47.296" lon="4.98834">
        <ele>428.07</ele>
        <time>2025-02-23T10:10:57Z</time>
      </trkpt>
      <trkpt lat="47.29591" lon="4.9883">
        <ele>425.12</ele>
        <time>2025-02-23T10:11:06Z</time>
      </trkpt>
      <trkpt lat="47.29583" lon="4.98823">
        <ele>425.84</ele>
        <time>2025-02-23T10:11:15Z</time>
      </trkpt>
      <trkpt lat="47.29575" lon="4.98818">
        <ele>427.63</ele>
        <time>2025-02-23T10:11:22Z</time>
      </trkpt>
      <trkpt lat="47.29568" lon="4.98809">
        <ele>428.72</ele>
        <time>2025-02-23T10:11:30Z</time>
      </trkpt>
      <trkpt lat="47.2956" lon="4.98803">
        <ele>427.54</ele>
        <time>2025-02-23T10:11:37Z</time>
      </trkpt>
      <trkpt lat="47.2955" lon="4.988">
        <ele>427.95</ele>
        <time>2025-02-23T10:11:46Z</time>
      </trkpt>
      <trkpt lat="47.29541" lon="4.98796">
        <ele>429.51</ele>
        <time>2025-02-23T10:11:58Z</time>
      </trkpt>
      <trkpt lat="47.29532" lon="4.9879">
        <ele>432.19</ele>
        <time>2025-02-23T10:12:09Z</time>
      </trkpt>
      <trkpt lat="47.29523" lon="4.98786">
        <ele>429.94</ele>
        <time>2025-02-23T10:12:17Z</time>
      </trkpt>
      <trkpt lat="47.29514" lon="4.98782">
        <ele>429.61</ele>
        <time>2025-02-23T10:12:25Z</time>
      </trkpt>
      <trkpt lat="47.29505" lon="4.98777">
        <ele>432.62</ele>
        <time>2025-02-23T10:12:34Z</time>
      </trkpt>
      <trkpt lat="47.29497" lon="4.98772">
        <ele>432.34</ele>
        <time>2025-02-23T10:12:41Z</time>
      </trkpt>
      <trkpt lat="47.29487" lon="4.98767">
        <ele>432.72</ele>
        <time>2025-02-23T10:12:49Z</time>
      </trkpt>
      <trkpt lat="47.29478" lon="4.98761">
        <ele>433.95</ele>
        <time>2025-02-23T10:12:59Z</time>
      </trkpt>
      <trkpt lat="47.29468" lon="4.98755">
        <ele>433.51</ele>
        <time>2025-02-23T10:13:06Z</time>
      </trkpt>
      <trkpt lat="47.29459" lon="4.98753">
        <ele>427.28</ele>
        <time>2025-02-23T10:13:15Z</time>
      </trkpt>
      <trkpt lat="47.29449" lon="4.98754">
        <ele>426.09</ele>
        <time>2025-02-23T10:13:24Z</time>
      </trkpt>
      <trkpt lat="47.29441" lon="4.98751">
        <ele>426.24</ele>
        <time>2025-02-23T10:13:31Z</time>
      </trkpt>
      <trkpt lat="47.2943" lon="4.98747">
        <ele>425.83</ele>
        <time>2025-02-23T10:13:41Z</time>
      </trkpt>
      <trkpt lat="47.29421" lon="4.98741">
        <ele>428.23</ele>
        <time>2025-02-23T10:13:50Z</time>
      </trkpt>
      <trkpt lat="47.29412" lon="4.98736">
        <ele>426.86</ele>
        <time>2025-02-23T10:13:58Z</time>
      </trkpt>
      <trkpt lat="47.29403" lon="4.98733">
        <ele>426.26</ele>
        <time>2025-02-23T10:14:05Z</time>
      </trkpt>
      <trkpt lat="47.29394" lon="4.98729">
        <ele>426.65</ele>
        <time>2025-02-23T10:14:15Z</time>
      </trkpt>
      <trkpt lat="47.29386" lon="4.98721">
        <ele>425.55</ele>
        <time>2025-02-23T10:14:23Z</time>
      </trkpt>
      <trkpt lat="47.29376" lon="4.98714">
        <ele>425.3</ele>
        <time>2025-02-23T10:14:32Z</time>
      </trkpt>
      <trkpt lat="47.29367" lon="4.98709">
        <ele>422.65</ele>
        <time>2025-02-23T10:14:41Z</time>
      </trkpt>
      <trkpt lat="47.29357" lon="4.98708">
        <ele>423.59</ele>
        <time>2025-02-23T10:14:51Z</time>
      </trkpt>
      <trkpt lat="47.29349" lon="4.98703">
        <ele>424.66</ele>
        <time>2025-02-23T10:15:02Z</time>
      </trkpt>
      <trkpt lat="47.2934" lon="4.98699">
        <ele>421.36</ele>
        <time>2025-02-23T10:15:11Z</time>
      </trkpt>
      <trkpt lat="47.2933" lon="4.98695">
        <ele>422.59</ele>
        <time>2025-02-23T10:15:18Z</time>
      </trkpt>
      <trkpt lat="47.2932" lon="4.98692">
        <ele>420.67</ele>
        <time>2025-02-23T10:15:27Z</time>
      </trkpt>
      <trkpt lat="47.29311" lon="4.98687">
        <ele>422.37</ele>
        <time>2025-02-23T10:15:38Z</time>
      </trkpt>
      <trkpt lat="47.29301" lon="4.98683">
        <ele>421.86</ele>
        <time>2025-02-23T10:15:48Z</time>
      </trkpt>
      <trkpt lat="47.29292" lon="4.98681">
        <ele>420.52</ele>
        <time>2025-02-23T10:15:55Z</time>
      </trkpt>
      <trkpt lat="47.29282" lon="4.98677">
        <ele>422.48</ele>
        <time>2025-02-23T10:16:02Z</time>
      </trkpt>
      <trkpt lat="47.29272" lon="4.98674">
        <ele>419.33</ele>
        <time>2025-02-23T10:16:11Z</time>
      </trkpt>
      <trkpt lat="47.29262" lon="4.98673">
        <ele>419.31</ele>
        <time>2025-02-23T10:16:21Z</time>
      </trkpt>
      <trkpt lat="47.29253" lon="4.9867">
        <ele>419.84</ele>
        <time>2025-02-23T10:16:26Z</time>
      </trkpt>
      <trkpt lat="47.29243" lon="4.9867">
        <ele>420.54</ele>
        <time>2025-02-23T10:16:33Z</time>
      </trkpt>
      <trkpt lat="47.29233" lon="4.98666">
        <ele>421.46</ele>
        <time>2025-02-23T10:16:41Z</time>
      </trkpt>
      <trkpt lat="47.29224" lon="4.98663">
        <ele>422.95</ele>
        <time>2025-02-23T10:16:50Z</time>
      </trkpt>
      <trkpt lat="47.29215" lon="4.98661">
        <ele>423.34</ele>
        <time>2025-02-23T10:16:58Z</time>
      </trkpt>
      <trkpt lat="47.29205" lon="4.98659">
        <ele>424.53</ele>
        <time>2025-02-23T10:17:07Z</time>
      </trkpt>
      <trkpt lat="47.29195" lon="4.98656">
        <ele>423.23</ele>
        <time>2025-02-23T10:17:16Z</time>
      </trkpt>
      <trkpt lat="47.29186" lon="4.98655">
        <ele>423.63</ele>
        <time>2025-02-23T10:17:25Z</time>
      </trkpt>
      <trkpt lat="47.29176" lon="4.98651">
        <ele>422.84</ele>
        <time>2025-02-23T10:17:34Z</time>
      </trkpt>
      <trkpt lat="47.29167" lon="4.98646">
        <ele>424.67</ele>
        <time>2025-02-23T10:17:42Z</time>
      </trkpt>
      <trkpt lat="47.29158" lon="4.98643">
        <ele>424.8</ele>
        <time>2025-02-23T10:17:50Z</time>
      </trkpt>
      <trkpt lat="47.29148" lon="4.9864">
        <ele>424.35</ele>
        <time>2025-02-23T10:17:59Z</time>
      </trkpt>
      <trkpt lat="47.29138" lon="4.98636">
        <ele>424.25</ele>
        <time>2025-02-23T10:18:08Z</time>
      </trkpt>
      <trkpt lat="47.29129" lon="4.98632">
        <ele>424.07</ele>
        <time>2025-02-23T10:18:17Z</time>
      </trkpt>
      <trkpt lat="47.2912" lon="4.98629">
        <ele>422.28</ele>
        <time>2025-02-23T10:18:25Z</time>
      </trkpt>
      <trkpt lat="47.2911" lon="4.98625">
        <ele>421.58</ele>
        <time>2025-02-23T10:18:34Z</time>
      </trkpt>
      <trkpt lat="47.29101" lon="4.98622">
        <ele>422.27</ele>
        <time>2025-02-23T10:18:42Z</time>
      </trkpt>
      <trkpt lat="47.29091" lon="4.98619">
        <ele>421.65</ele>
        <time>2025-02-23T10:18:50Z</time>
      </trkpt>
      <trkpt lat="47.29082" lon="4.98616">
        <ele>422.11</ele>
        <time>2025-02-23T10:18:58Z</time>
      </trkpt>
      <trkpt lat="47.29073" lon="4.98612">
        <ele>422.45</ele>
        <time>2025-02-23T10:19:05Z</time>
      </trkpt>
      <trkpt lat="47.29063" lon="4.98611">
        <ele>421.47</ele>
        <time>2025-02-23T10:19:13Z</time>
      </trkpt>
      <trkpt lat="47.29054" lon="4.98611">
        <ele>421.07</ele>
        <time>2025-02-23T10:19:20Z</time>
      </trkpt>
      <trkpt lat="47.29045" lon="4.98613">
        <ele>419.18</ele>
        <time>2025-02-23T10:19:29Z</time>
      </trkpt>
      <trkpt lat="47.29035" lon="4.98616">
        <ele>418.02</ele>
        <time>2025-02-23T10:19:37Z</time>
      </trkpt>
      <trkpt lat="47.29025" lon="4.98616">
        <ele>420.03</ele>
        <time>2025-02-23T10:19:45Z</time>
      </trkpt>
      <trkpt lat="47.29016" lon="4.98622">
        <ele>419.3</ele>
        <time>2025-02-23T10:19:52Z</time>
      </trkpt>
      <trkpt lat="47.29007" lon="4.98626">
        <ele>422.15</ele>
        <time>2025-02-23T10:20:01Z</time>
      </trkpt>
      <trkpt lat="47.28998" lon="4.98631">
        <ele>419.22</ele>
        <time>2025-02-23T10:20:10Z</time>
      </trkpt>
      <trkpt lat="47.28989" lon="4.98631">
        <ele>419.76</ele>
        <time>2025-02-23T10:20:17Z</time>
      </trkpt>
      <trkpt lat="47.2898" lon="4.98634">
        <ele>418.06</ele>
        <time>2025-02-23T10:20:25Z</time>
      </trkpt>
      <trkpt lat="47.28973" lon="4.98626">
        <ele>419.18</ele>
        <time>2025-02-23T10:20:32Z</time>
      </trkpt>
      <trkpt lat="47.28964" lon="4.98621">
        <ele>416.36</ele>
        <time>2025-02-23T10:20:40Z</time>
      </trkpt>
      <trkpt lat="47.28954" lon="4.98616">
        <ele>416.34</ele>
        <time>2025-02-23T10:20:48Z</time>
      </trkpt>
      <trkpt lat="47.28945" lon="4.98614">
        <ele>417.63</ele>
        <time>2025-02-23T10:20:57Z</time>
      </trkpt>
      <trkpt lat="47.28937" lon="4.98609">
        <ele>418.81</ele>
        <time>2025-02-23T10:21:05Z</time>
      </trkpt>
      <trkpt lat="47.28928" lon="4.98603">
        <ele>419.28</ele>
        <time>2025-02-23T10:21:13Z</time>
      </trkpt>
      <trkpt lat="47.2892" lon="4.98597">
        <ele>417.95</ele>
        <time>2025-02-23T10:21:21Z</time>
      </trkpt>
      <trkpt lat="47.28912" lon="4.98589">
        <ele>416.56</ele>
        <time>2025-02-23T10:21:32Z</time>
      </trkpt>
      <trkpt lat="47.28903" lon="4.98589">
        <ele>416.47</ele>
        <time>2025-02-23T10:21:40Z</time>
      </trkpt>
      <trkpt lat="47.28894" lon="4.98585">
        <ele>415.66</ele>
        <time>2025-02-23T10:21:49Z</time>
      </trkpt>
      <trkpt lat="47.28885" lon="4.98584">
        <ele>417.36</ele>
        <time>2025-02-23T10:21:57Z</time>
      </trkpt>
      <trkpt lat="47.28875" lon="4.98585">
        <ele>415.09</ele>
        <time>2025-02-23T10:22:06Z</time>
      </trkpt>
      <trkpt lat="47.28866" lon="4.98585">
        <ele>414.91</ele>
        <time>2025-02-23T10:22:14Z</time>
      </trkpt>
      <trkpt lat="47.28856" lon="4.98583">
        <ele>414.04</ele>
        <time>2025-02-23T10:22:22Z</time>
      </trkpt>
      <trkpt lat="47.28847" lon="4.98583">
        <ele>414.07</ele>
        <time>2025-02-23T10:22:30Z</time>
      </trkpt>
      <trkpt lat="47.28838" lon="4.98583">
        <ele>412.72</ele>
        <time>2025-02-23T10:22:38Z</time>
      </trkpt>
      <trkpt lat="47.28828" lon="4.98584">
        <ele>410.38</ele>
        <time>2025-02-23T10:22:47Z</time>
      </trkpt>
      <trkpt lat="47.28819" lon="4.98589">
        <ele>411.05</ele>
        <time>2025-02-23T10:22:57Z</time>
      </trkpt>
      <trkpt lat="47.2881" lon="4.98592">
        <ele>410.66</ele>
        <time>2025-02-23T10:23:07Z</time>
      </trkpt>
      <trkpt lat="47.28801" lon="4.98595">
        <ele>410.24</ele>
        <time>2025-02-23T10:23:17Z</time>
      </trkpt>
      <trkpt lat="47.28792" lon="4.986">
        <ele>409.68</ele>
        <time>2025-02-23T10:23:28Z</time>
      </trkpt>
      <trkpt lat="47.28783" lon="4.98606">
        <ele>408.13</ele>
        <time>2025-02-23T10:23:40Z</time>
      </trkpt>
      <trkpt lat="47.28775" lon="4.98613">
        <ele>407.2</ele>
        <time>2025-02-23T10:23:51Z</time>
      </trkpt>
      <trkpt lat="47.28766" lon="4.98615">
        <ele>407.81</ele>
        <time>2025-02-23T10:23:57Z</time>
      </trkpt>
      <trkpt lat="47.28757" lon="4.98618">
        <ele>409.12</ele>
        <time>2025-02-23T10:24:10Z</time>
      </trkpt>
      <trkpt lat="47.28749" lon="4.98623">
        <ele>405.82</ele>
        <time>2025-02-23T10:24:22Z</time>
      </trkpt>
      <trkpt lat="47.28742" lon="4.98632">
        <ele>399.68</ele>
        <time>2025-02-23T10:24:39Z</time>
      </trkpt>
      <trkpt lat="47.28731" lon="4.98636">
        <ele>402.92</ele>
        <time>2025-02-23T10:24:50Z</time>
      </trkpt>
      <trkpt lat="47.28721" lon="4.9864">
        <ele>402.56</ele>
        <time>2025-02-23T10:25:00Z</time>
      </trkpt>
      <trkpt lat="47.28712" lon="4.98643">
        <ele>399.44</ele>
        <time>2025-02-23T10:25:11Z</time>
      </trkpt>
      <trkpt lat="47.28703" lon="4.98649">
        <ele>396.64</ele>
        <time>2025-02-23T10:25:21Z</time>
      </trkpt>
      <trkpt lat="47.28693" lon="4.98655">
        <ele>398.22</ele>
        <time>2025-02-23T10:25:31Z</time>
      </trkpt>
      <trkpt lat="47.28682" lon="4.98659">
        <ele>398.82</ele>
        <time>2025-02-23T10:25:41Z</time>
      </trkpt>
      <trkpt lat="47.28673" lon="4.98664">
        <ele>398.21</ele>
        <time>2025-02-23T10:26:00Z</time>
      </trkpt>
      <trkpt lat="47.28663" lon="4.98666">
        <ele>393.53</ele>
        <time>2025-02-23T10:26:13Z</time>
      </trkpt>
      <trkpt lat="47.28654" lon="4.98669">
        <ele>395.27</ele>
        <time>2025-02-23T10:26:22Z</time>
      </trkpt>
      <trkpt lat="47.28646" lon="4.98676">
        <ele>394.93</ele>
        <time>2025-02-23T10:26:28Z</time>
      </trkpt>
      <trkpt lat="47.28636" lon="4.98677">
        <ele>396.38</ele>
        <time>2025-02-23T10:26:38Z</time>
      </trkpt>
      <trkpt lat="47.28627" lon="4.98675">
        <ele>395.12</ele>
        <time>2025-02-23T10:26:48Z</time>
      </trkpt>
      <trkpt lat="47.28617" lon="4.98674">
        <ele>394.53</ele>
        <time>2025-02-23T10:26:58Z</time>
      </trkpt>
      <trkpt lat="47.28607" lon="4.98672">
        <ele>393.46</ele>
        <time>2025-02-23T10:27:06Z</time>
      </trkpt>
      <trkpt lat="47.28598" lon="4.98668">
        <ele>394.76</ele>
        <time>2025-02-23T10:27:17Z</time>
      </trkpt>
      <trkpt lat="47.28589" lon="4.98662">
        <ele>390.93</ele>
        <time>2025-02-23T10:27:24Z</time>
      </trkpt>
      <trkpt lat="47.28581" lon="4.98657">
        <ele>388.61</ele>
        <time>2025-02-23T10:27:38Z</time>
      </trkpt>
      <trkpt lat="47.28573" lon="4.98652">
        <ele>385.41</ele>
        <time>2025-02-23T10:27:49Z</time>
      </trkpt>
      <trkpt lat="47.28563" lon="4.9865">
        <ele>383.96</ele>
        <time>2025-02-23T10:28:05Z</time>
      </trkpt>
      <trkpt lat="47.28554" lon="4.98645">
        <ele>383.56</ele>
        <time>2025-02-23T10:28:14Z</time>
      </trkpt>
      <trkpt lat="47.28546" lon="4.9864">
        <ele>383.47</ele>
        <time>2025-02-23T10:28:25Z</time>
      </trkpt>
      <trkpt lat="47.28536" lon="4.98634">
        <ele>380.38</ele>
        <time>2025-02-23T10:28:35Z</time>
      </trkpt>
      <trkpt lat="47.28528" lon="4.98627">
        <ele>376.64</ele>
        <time>2025-02-23T10:28:45Z</time>
      </trkpt>
      <trkpt lat="47.28519" lon="4.98625">
        <ele>374.07</ele>
        <time>2025-02-23T10:28:54Z</time>
      </trkpt>
      <trkpt lat="47.28509" lon="4.98626">
        <ele>374.12</ele>
        <time>2025-02-23T10:28:59Z</time>
      </trkpt>
      <trkpt lat="47.285" lon="4.98622">
        <ele>372.15</ele>
        <time>2025-02-23T10:29:07Z</time>
      </trkpt>
      <trkpt lat="47.28491" lon="4.98619">
        <ele>375.14</ele>
        <time>2025-02-23T10:29:15Z</time>
      </trkpt>
      <trkpt lat="47.28481" lon="4.98619">
        <ele>371.87</ele>
        <time>2025-02-23T10:29:20Z</time>
      </trkpt>
      <trkpt lat="47.28471" lon="4.98616">
        <ele>371.23</ele>
        <time>2025-02-23T10:29:31Z</time>
      </trkpt>
      <trkpt lat="47.28461" lon="4.98614">
        <ele>368.53</ele>
        <time>2025-02-23T10:29:40Z</time>
      </trkpt>
      <trkpt lat="47.28452" lon="4.98624">
        <ele>363.16</ele>
        <time>2025-02-23T10:29:47Z</time>
      </trkpt>
      <trkpt lat="47.28444" lon="4.98632">
        <ele>363.03</ele>
        <time>2025-02-23T10:29:52Z</time>
      </trkpt>
      <trkpt lat="47.28434" lon="4.98634">
        <ele>361.55</ele>
        <time>2025-02-23T10:30:05Z</time>
      </trkpt>
      <trkpt lat="47.28425" lon="4.98637">
        <ele>362.89</ele>
        <time>2025-02-23T10:30:13Z</time>
      </trkpt>
      <trkpt lat="47.28416" lon="4.98641">
        <ele>362.82</ele>
        <time>2025-02-23T10:30:19Z</time>
      </trkpt>
      <trkpt lat="47.28407" lon="4.98645">
        <ele>361.09</ele>
        <time>2025-02-23T10:30:30Z</time>
      </trkpt>
      <trkpt lat="47.28397" lon="4.98649">
        <ele>357.67</ele>
        <time>2025-02-23T10:30:38Z</time>
      </trkpt>
      <trkpt lat="47.28387" lon="4.98646">
        <ele>360.71</ele>
        <time>2025-02-23T10:30:51Z</time>
      </trkpt>
      <trkpt lat="47.28378" lon="4.98645">
        <ele>359.75</ele>
        <time>2025-02-23T10:30:58Z</time>
      </trkpt>
      <trkpt lat="47.28369" lon="4.98643">
        <ele>356.37</ele>
        <time>2025-02-23T10:31:03Z</time>
      </trkpt>
      <trkpt lat="47.28359" lon="4.98645">
        <ele>353.71</ele>
        <time>2025-02-23T10:31:16Z</time>
      </trkpt>
      <trkpt lat="47.2835" lon="4.98647">
        <ele>351.36</ele>
        <time>2025-02-23T10:31:23Z</time>
      </trkpt>
      <trkpt lat="47.28341" lon="4.98649">
        <ele>347.62</ele>
        <time>2025-02-23T10:31:29Z</time>
      </trkpt>
      <trkpt lat="47.28331" lon="4.9865">
        <ele>347.37</ele>
        <time>2025-02-23T10:31:40Z</time>
      </trkpt>
      <trkpt lat="47.28322" lon="4.98654">
        <ele>347.72</ele>
        <time>2025-02-23T10:31:48Z</time>
      </trkpt>
      <trkpt lat="47.28313" lon="4.98655">
        <ele>344.91</ele>
        <time>2025-02-23T10:31:53Z</time>
      </trkpt>
      <trkpt lat="47.28303" lon="4.98655">
        <ele>341.91</ele>
        <time>2025-02-23T10:32:03Z</time>
      </trkpt>
      <trkpt lat="47.28294" lon="4.98652">
        <ele>348.54</ele>
        <time>2025-02-23T10:32:09Z</time>
      </trkpt>
      <trkpt lat="47.28285" lon="4.98657">
        <ele>347.28</ele>
        <time>2025-02-23T10:32:18Z</time>
      </trkpt>
      <trkpt lat="47.28276" lon="4.98659">
        <ele>345.54</ele>
        <time>2025-02-23T10:32:27Z</time>
      </trkpt>
      <trkpt lat="47.28265" lon="4.98662">
        <ele>343.39</ele>
        <time>2025-02-23T10:32:33Z</time>
      </trkpt>
      <trkpt lat="47.28256" lon="4.98663">
        <ele>344.76</ele>
        <time>2025-02-23T10:32:45Z</time>
      </trkpt>
      <trkpt lat="47.28246" lon="4.98666">
        <ele>345.96</ele>
        <time>2025-02-23T10:32:52Z</time>
      </trkpt>
      <trkpt lat="47.28236" lon="4.98665">
        <ele>346.21</ele>
        <time>2025-02-23T10:33:02Z</time>
      </trkpt>
      <trkpt lat="47.28227" lon="4.98667">
        <ele>345.48</ele>
        <time>2025-02-23T10:33:09Z</time>
      </trkpt>
      <trkpt lat="47.28218" lon="4.98663">
        <ele>344.21</ele>
        <time>2025-02-23T10:33:18Z</time>
      </trkpt>
      <trkpt lat="47.28208" lon="4.98658">
        <ele>339.55</ele>
        <time>2025-02-23T10:33:26Z</time>
      </trkpt>
      <trkpt lat="47.28202" lon="4.98673">
        <ele>339</ele>
        <time>2025-02-23T10:33:32Z</time>
      </trkpt>
      <trkpt lat="47.28209" lon="4.98683">
        <ele>341.83</ele>
        <time>2025-02-23T10:33:42Z</time>
      </trkpt>
      <trkpt lat="47.28214" lon="4.98693">
        <ele>342.03</ele>
        <time>2025-02-23T10:33:52Z</time>
      </trkpt>
      <trkpt lat="47.28218" lon="4.98705">
        <ele>343.53</ele>
        <time>2025-02-23T10:34:00Z</time>
      </trkpt>
      <trkpt lat="47.28224" lon="4.98717">
        <ele>341.19</ele>
        <time>2025-02-23T10:34:09Z</time>
      </trkpt>
      <trkpt lat="47.28229" lon="4.98728">
        <ele>342.31</ele>
        <time>2025-02-23T10:34:16Z</time>
      </trkpt>
      <trkpt lat="47.28237" lon="4.98736">
        <ele>342.99</ele>
        <time>2025-02-23T10:34:24Z</time>
      </trkpt>
      <trkpt lat="47.28243" lon="4.98745">
        <ele>341.59</ele>
        <time>2025-02-23T10:34:33Z</time>
      </trkpt>
      <trkpt lat="47.28252" lon="4.98753">
        <ele>341.16</ele>
        <time>2025-02-23T10:34:41Z</time>
      </trkpt>
      <trkpt lat="47.28259" lon="4.98764">
        <ele>345.65</ele>
        <time>2025-02-23T10:34:52Z</time>
      </trkpt>
      <trkpt lat="47.28266" lon="4.98772">
        <ele>346.77</ele>
        <time>2025-02-23T10:35:00Z</time>
      </trkpt>
      <trkpt lat="47.28272" lon="4.98783">
        <ele>350.32</ele>
        <time>2025-02-23T10:35:08Z</time>
      </trkpt>
      <trkpt lat="47.28278" lon="4.98796">
        <ele>348.68</ele>
        <time>2025-02-23T10:35:18Z</time>
      </trkpt>
      <trkpt lat="47.28283" lon="4.98808">
        <ele>349.79</ele>
        <time>2025-02-23T10:35:24Z</time>
      </trkpt>
      <trkpt lat="47.28286" lon="4.98822">
        <ele>350.34</ele>
        <time>2025-02-23T10:35:33Z</time>
      </trkpt>
      <trkpt lat="47.2829" lon="4.98836">
        <ele>352.26</ele>
        <time>2025-02-23T10:35:41Z</time>
      </trkpt>
      <trkpt lat="47.28294" lon="4.9885">
        <ele>350.74</ele>
        <time>2025-02-23T10:35:51Z</time>
      </trkpt>
      <trkpt lat="47.28299" lon="4.98861">
        <ele>350.22</ele>
        <time>2025-02-23T10:35:56Z</time>
      </trkpt>
      <trkpt lat="47.28305" lon="4.98872">
        <ele>347</ele>
        <time>2025-02-23T10:36:07Z</time>
      </trkpt>
      <trkpt lat="47.28307" lon="4.98886">
        <ele>349.12</ele>
        <time>2025-02-23T10:36:16Z</time>
      </trkpt>
      <trkpt lat="47.28309" lon="4.98899">
        <ele>348.36</ele>
        <time>2025-02-23T10:36:23Z</time>
      </trkpt>
      <trkpt lat="47.28309" lon="4.98913">
        <ele>351.1</ele>
        <time>2025-02-23T10:36:32Z</time>
      </trkpt>
      <trkpt lat="47.28311" lon="4.98926">
        <ele>348.74</ele>
        <time>2025-02-23T10:36:42Z</time>
      </trkpt>
      <trkpt lat="47.28314" lon="4.98939">
        <ele>348.85</ele>
        <time>2025-02-23T10:36:49Z</time>
      </trkpt>
      <trkpt lat="47.28317" lon="4.98952">
        <ele>346.65</ele>
        <time>2025-02-23T10:36:56Z</time>
      </trkpt>
      <trkpt lat="47.28319" lon="4.98966">
        <ele>347.83</ele>
        <time>2025-02-23T10:37:03Z</time>
      </trkpt>
      <trkpt lat="47.28322" lon="4.9898">
        <ele>348.04</ele>
        <time>2025-02-23T10:37:11Z</time>
      </trkpt>
      <trkpt lat="47.28325" lon="4.98995">
        <ele>349.67</ele>
        <time>2025-02-23T10:37:19Z</time>
      </trkpt>
      <trkpt lat="47.28328" lon="4.99007">
        <ele>347.71</ele>
        <time>2025-02-23T10:37:27Z</time>
      </trkpt>
      <trkpt lat="47.28331" lon="4.99022">
        <ele>348.5</ele>
        <time>2025-02-23T10:37:36Z</time>
      </trkpt>
      <trkpt lat="47.28333" lon="4.99035">
        <ele>349.44</ele>
        <time>2025-02-23T10:37:44Z</time>
      </trkpt>
      <trkpt lat="47.28334" lon="4.99048">
        <ele>349.23</ele>
        <time>2025-02-23T10:37:52Z</time>
      </trkpt>
      <trkpt lat="47.28336" lon="4.99062">
        <ele>347.25</ele>
        <time>2025-02-23T10:38:00Z</time>
      </trkpt>
      <trkpt lat="47.28339" lon="4.99076">
        <ele>345.49</ele>
        <time>2025-02-23T10:38:08Z</time>
      </trkpt>
      <trkpt lat="47.28341" lon="4.9909">
        <ele>347.27</ele>
        <time>2025-02-23T10:38:16Z</time>
      </trkpt>
      <trkpt lat="47.28343" lon="4.99104">
        <ele>346.08</ele>
        <time>2025-02-23T10:38:24Z</time>
      </trkpt>
      <trkpt lat="47.28345" lon="4.99117">
        <ele>344.73</ele>
        <time>2025-02-23T10:38:32Z</time>
      </trkpt>
      <trkpt lat="47.2834" lon="4.99129">
        <ele>345.26</ele>
        <time>2025-02-23T10:38:40Z</time>
      </trkpt>
      <trkpt lat="47.28333" lon="4.99137">
        <ele>344.81</ele>
        <time>2025-02-23T10:38:49Z</time>
      </trkpt>
      <trkpt lat="47.28324" lon="4.99143">
        <ele>341.69</ele>
        <time>2025-02-23T10:38:59Z</time>
      </trkpt>
      <trkpt lat="47.28318" lon="4.99154">
        <ele>342.39</ele>
        <time>2025-02-23T10:39:09Z</time>
      </trkpt>
      <trkpt lat="47.28312" lon="4.99165">
        <ele>342.63</ele>
        <time>2025-02-23T10:39:18Z</time>
      </trkpt>
      <trkpt lat="47.28307" lon="4.99178">
        <ele>337.73</ele>
        <time>2025-02-23T10:39:29Z</time>
      </trkpt>
      <trkpt lat="47.28307" lon="4.99192">
        <ele>339.08</ele>
        <time>2025-02-23T10:39:37Z</time>
      </trkpt>
      <trkpt lat="47.28306" lon="4.99206">
        <ele>337.66</ele>
        <time>2025-02-23T10:39:46Z</time>
      </trkpt>
      <trkpt lat="47.28305" lon="4.9922">
        <ele>338.31</ele>
        <time>2025-02-23T10:39:55Z</time>
      </trkpt>
      <trkpt lat="47.283" lon="4.99232">
        <ele>339.34</ele>
        <time>2025-02-23T10:40:03Z</time>
      </trkpt>
      <trkpt lat="47.28294" lon="4.99243">
        <ele>338.3</ele>
        <time>2025-02-23T10:40:11Z</time>
      </trkpt>
      <trkpt lat="47.28288" lon="4.99255">
        <ele>336</ele>
        <time>2025-02-23T10:40:20Z</time>
      </trkpt>
      <trkpt lat="47.28282" lon="4.99266">
        <ele>335.77</ele>
        <time>2025-02-23T10:40:25Z</time>
      </trkpt>
      <trkpt lat="47.28279" lon="4.99279">
        <ele>335.53</ele>
        <time>2025-02-23T10:40:37Z</time>
      </trkpt>
      <trkpt lat="47.28286" lon="4.99292">
        <ele>336.27</ele>
        <time>2025-02-23T10:40:43Z</time>
      </trkpt>
      <trkpt lat="47.28292" lon="4.99301">
        <ele>336.26</ele>
        <time>2025-02-23T10:40:54Z</time>
      </trkpt>
      <trkpt lat="47.28299" lon="4.99313">
        <ele>339.69</ele>
        <time>2025-02-23T10:41:00Z</time>
      </trkpt>
      <trkpt lat="47.28307" lon="4.99322">
        <ele>338.96</ele>
        <time>2025-02-23T10:41:10Z</time>
      </trkpt>
      <trkpt lat="47.28314" lon="4.99332">
        <ele>339.37</ele>
        <time>2025-02-23T10:41:16Z</time>
      </trkpt>
      <trkpt lat="47.2832" lon="4.9934">
        <ele>338.27</ele>
        <time>2025-02-23T10:41:26Z</time>
      </trkpt>
      <trkpt lat="47.28327" lon="4.99352">
        <ele>341.32</ele>
        <time>2025-02-23T10:41:35Z</time>
      </trkpt>
      <trkpt lat="47.28333" lon="4.99363">
        <ele>340.29</ele>
        <time>2025-02-23T10:41:42Z</time>
      </trkpt>
      <trkpt lat="47.2834" lon="4.99373">
        <ele>338.9</ele>
        <time>2025-02-23T10:41:51Z</time>
      </trkpt>
      <trkpt lat="47.28348" lon="4.99384">
        <ele>338.1</ele>
        <time>2025-02-23T10:41:59Z</time>
      </trkpt>
      <trkpt lat="47.28354" lon="4.99395">
        <ele>337.04</ele>
        <time>2025-02-23T10:42:08Z</time>
      </trkpt>
      <trkpt lat="47.28363" lon="4.99405">
        <ele>339.59</ele>
        <time>2025-02-23T10:42:15Z</time>
      </trkpt>
      <trkpt lat="47.28371" lon="4.9941">
        <ele>336.69</ele>
        <time>2025-02-23T10:42:24Z</time>
      </trkpt>
      <trkpt lat="47.2838" lon="4.99416">
        <ele>334.66</ele>
        <time>2025-02-23T10:42:30Z</time>
      </trkpt>
      <trkpt lat="47.28387" lon="4.99427">
        <ele>336.61</ele>
        <time>2025-02-23T10:42:41Z</time>
      </trkpt>
      <trkpt lat="47.28394" lon="4.99438">
        <ele>339.31</ele>
        <time>2025-02-23T10:42:46Z</time>
      </trkpt>
      <trkpt lat="47.28401" lon="4.99449">
        <ele>338.36</ele>
        <time>2025-02-23T10:42:56Z</time>
      </trkpt>
      <trkpt lat="47.28408" lon="4.99457">
        <ele>338.32</ele>
        <time>2025-02-23T10:43:01Z</time>
      </trkpt>
      <trkpt lat="47.28416" lon="4.99464">
        <ele>332.75</ele>
        <time>2025-02-23T10:43:11Z</time>
      </trkpt>
      <trkpt lat="47.28425" lon="4.99471">
        <ele>334.31</ele>
        <time>2025-02-23T10:43:16Z</time>
      </trkpt>
      <trkpt lat="47.28433" lon="4.99479">
        <ele>335.08</ele>
        <time>2025-02-23T10:43:29Z</time>
      </trkpt>
      <trkpt lat="47.28441" lon="4.99488">
        <ele>333.75</ele>
        <time>2025-02-23T10:43:38Z</time>
      </trkpt>
      <trkpt lat="47.28448" lon="4.99499">
        <ele>335.75</ele>
        <time>2025-02-23T10:43:44Z</time>
      </trkpt>
      <trkpt lat="47.28454" lon="4.99509">
        <ele>336.74</ele>
        <time>2025-02-23T10:43:51Z</time>
      </trkpt>
      <trkpt lat="47.28458" lon="4.99521">
        <ele>339.34</ele>
        <time>2025-02-23T10:43:57Z</time>
      </trkpt>
      <trkpt lat="47.28465" lon="4.99532">
        <ele>340.26</ele>
        <time>2025-02-23T10:44:08Z</time>
      </trkpt>
      <trkpt lat="47.28471" lon="4.99542">
        <ele>334.9</ele>
        <time>2025-02-23T10:44:18Z</time>
      </trkpt>
      <trkpt lat="47.28477" lon="4.99553">
        <ele>337.6</ele>
        <time>2025-02-23T10:44:25Z</time>
      </trkpt>
      <trkpt lat="47.28483" lon="4.99564">
        <ele>335.46</ele>
        <time>2025-02-23T10:44:36Z</time>
      </trkpt>
      <trkpt lat="47.28487" lon="4.99578">
        <ele>337.31</ele>
        <time>2025-02-23T10:44:41Z</time>
      </trkpt>
      <trkpt lat="47.28494" lon="4.99588">
        <ele>334.42</ele>
        <time>2025-02-23T10:44:52Z</time>
      </trkpt>
      <trkpt lat="47.28502" lon="4.99596">
        <ele>336.47</ele>
        <time>2025-02-23T10:45:01Z</time>
      </trkpt>
      <trkpt lat="47.28509" lon="4.99606">
        <ele>338.3</ele>
        <time>2025-02-23T10:45:08Z</time>
      </trkpt>
      <trkpt lat="47.28518" lon="4.99613">
        <ele>336.59</ele>
        <time>2025-02-23T10:45:18Z</time>
      </trkpt>
      <trkpt lat="47.28527" lon="4.99618">
        <ele>333.38</ele>
        <time>2025-02-23T10:45:30Z</time>
      </trkpt>
      <trkpt lat="47.28537" lon="4.99623">
        <ele>333.44</ele>
        <time>2025-02-23T10:45:39Z</time>
      </trkpt>
      <trkpt lat="47.28545" lon="4.9963">
        <ele>334.9</ele>
        <time>2025-02-23T10:45:44Z</time>
      </trkpt>
      <trkpt lat="47.28551" lon="4.99642">
        <ele>331.21</ele>
        <time>2025-02-23T10:45:54Z</time>
      </trkpt>
      <trkpt lat="47.2855" lon="4.99657">
        <ele>331.09</ele>
        <time>2025-02-23T10:46:05Z</time>
      </trkpt>
      <trkpt lat="47.28554" lon="4.99669">
        <ele>331.96</ele>
        <time>2025-02-23T10:46:11Z</time>
      </trkpt>
      <trkpt lat="47.2856" lon="4.9968">
        <ele>333.36</ele>
        <time>2025-02-23T10:46:21Z</time>
      </trkpt>
      <trkpt lat="47.28569" lon="4.99686">
        <ele>335.86</ele>
        <time>2025-02-23T10:46:31Z</time>
      </trkpt>
      <trkpt lat="47.28576" lon="4.99693">
        <ele>337.65</ele>
        <time>2025-02-23T10:46:36Z</time>
      </trkpt>
      <trkpt lat="47.28586" lon="4.99701">
        <ele>336.79</ele>
        <time>2025-02-23T10:46:46Z</time>
      </trkpt>
      <trkpt lat="47.28595" lon="4.99706">
        <ele>335.49</ele>
        <time>2025-02-23T10:46:54Z</time>
      </trkpt>
      <trkpt lat="47.28605" lon="4.99709">
        <ele>336.34</ele>
        <time>2025-02-23T10:47:01Z</time>
      </trkpt>
      <trkpt lat="47.28615" lon="4.99711">
        <ele>334.19</ele>
        <time>2025-02-23T10:47:13Z</time>
      </trkpt>
      <trkpt lat="47.28623" lon="4.99717">
        <ele>334.54</ele>
        <time>2025-02-23T10:47:20Z</time>
      </trkpt>
      <trkpt lat="47.28632" lon="4.9972">
        <ele>334.65</ele>
        <time>2025-02-23T10:47:27Z</time>
      </trkpt>
      <trkpt lat="47.2864" lon="4.99727">
        <ele>332.57</ele>
        <time>2025-02-23T10:47:35Z</time>
      </trkpt>
      <trkpt lat="47.2865" lon="4.99727">
        <ele>330.29</ele>
        <time>2025-02-23T10:47:47Z</time>
      </trkpt>
      <trkpt lat="47.2866" lon="4.99731">
        <ele>331.17</ele>
        <time>2025-02-23T10:47:55Z</time>
      </trkpt>
      <trkpt lat="47.28667" lon="4.99738">
        <ele>331.28</ele>
        <time>2025-02-23T10:48:02Z</time>
      </trkpt>
      <trkpt lat="47.28677" lon="4.99743">
        <ele>331.82</ele>
        <time>2025-02-23T10:48:10Z</time>
      </trkpt>
      <trkpt lat="47.28684" lon="4.99752">
        <ele>332.22</ele>
        <time>2025-02-23T10:48:20Z</time>
      </trkpt>
      <trkpt lat="47.28692" lon="4.99759">
        <ele>334.34</ele>
        <time>2025-02-23T10:48:26Z</time>
      </trkpt>
      <trkpt lat="47.28702" lon="4.99765">
        <ele>331.9</ele>
        <time>2025-02-23T10:48:35Z</time>
      </trkpt>
      <trkpt lat="47.28711" lon="4.99772">
        <ele>331.09</ele>
        <time>2025-02-23T10:48:46Z</time>
      </trkpt>
      <trkpt lat="47.28719" lon="4.9978">
        <ele>332.59</ele>
        <time>2025-02-23T10:48:52Z</time>
      </trkpt>
      <trkpt lat="47.28727" lon="4.99788">
        <ele>328.04</ele>
        <time>2025-02-23T10:49:03Z</time>
      </trkpt>
      <trkpt lat="47.28735" lon="4.99794">
        <ele>329.59</ele>
        <time>2025-02-23T10:49:09Z</time>
      </trkpt>
      <trkpt lat="47.28745" lon="4.99801">
        <ele>331.3</ele>
        <time>2025-02-23T10:49:18Z</time>
      </trkpt>
      <trkpt lat="47.28753" lon="4.99808">
        <ele>331.27</ele>
        <time>2025-02-23T10:49:27Z</time>
      </trkpt>
      <trkpt lat="47.28762" lon="4.99815">
        <ele>332.21</ele>
        <time>2025-02-23T10:49:34Z</time>
      </trkpt>
      <trkpt lat="47.28771" lon="4.99818">
        <ele>329.58</ele>
        <time>2025-02-23T10:49:45Z</time>
      </trkpt>
      <trkpt lat="47.28781" lon="4.99821">
        <ele>332.19</ele>
        <time>2025-02-23T10:49:50Z</time>
      </trkpt>
      <trkpt lat="47.2879" lon="4.99823">
        <ele>330.86</ele>
        <time>2025-02-23T10:50:02Z</time>
      </trkpt>
      <trkpt lat="47.28799" lon="4.99827">
        <ele>332.69</ele>
        <time>2025-02-23T10:50:10Z</time>
      </trkpt>
      <trkpt lat="47.2881" lon="4.99831">
        <ele>333.22</ele>
        <time>2025-02-23T10:50:18Z</time>
      </trkpt>
      <trkpt lat="47.28819" lon="4.99836">
        <ele>331.78</ele>
        <time>2025-02-23T10:50:27Z</time>
      </trkpt>
      <trkpt lat="47.28828" lon="4.9984">
        <ele>331.83</ele>
        <time>2025-02-23T10:50:32Z</time>
      </trkpt>
      <trkpt lat="47.28837" lon="4.99844">
        <ele>330.23</ele>
        <time>2025-02-23T10:50:42Z</time>
      </trkpt>
      <trkpt lat="47.28846" lon="4.99849">
        <ele>329.25</ele>
        <time>2025-02-23T10:50:51Z</time>
      </trkpt>
      <trkpt lat="47.28854" lon="4.99854">
        <ele>331.6</ele>
        <time>2025-02-23T10:50:58Z</time>
      </trkpt>
      <trkpt lat="47.28863" lon="4.9986">
        <ele>330.14</ele>
        <time>2025-02-23T10:51:09Z</time>
      </trkpt>
      <trkpt lat="47.28871" lon="4.99867">
        <ele>332.24</ele>
        <time>2025-02-23T10:51:18Z</time>
      </trkpt>
      <trkpt lat="47.2888" lon="4.9987">
        <ele>330.56</ele>
        <time>2025-02-23T10:51:26Z</time>
      </trkpt>
      <trkpt lat="47.2889" lon="4.99872">
        <ele>327.99</ele>
        <time>2025-02-23T10:51:31Z</time>
      </trkpt>
      <trkpt lat="47.28901" lon="4.99875">
        <ele>329.18</ele>
        <time>2025-02-23T10:51:42Z</time>
      </trkpt>
      <trkpt lat="47.28911" lon="4.99878">
        <ele>329.21</ele>
        <time>2025-02-23T10:51:47Z</time>
      </trkpt>
      <trkpt lat="47.28921" lon="4.9988">
        <ele>327.91</ele>
        <time>2025-02-23T10:52:00Z</time>
      </trkpt>
      <trkpt lat="47.2893" lon="4.99885">
        <ele>328.19</ele>
        <time>2025-02-23T10:52:08Z</time>
      </trkpt>
      <trkpt lat="47.2894" lon="4.99889">
        <ele>327.21</ele>
        <time>2025-02-23T10:52:16Z</time>
      </trkpt>
      <trkpt lat="47.28948" lon="4.99893">
        <ele>326.2</ele>
        <time>2025-02-23T10:52:25Z</time>
      </trkpt>
      <trkpt lat="47.28957" lon="4.99896">
        <ele>325.89</ele>
        <time>2025-02-23T10:52:32Z</time>
      </trkpt>
      <trkpt lat="47.28966" lon="4.999">
        <ele>326</ele>
        <time>2025-02-23T10:52:41Z</time>
      </trkpt>
      <trkpt lat="47.28975" lon="4.99905">
        <ele>327.42</ele>
        <time>2025-02-23T10:52:47Z</time>
      </trkpt>
      <trkpt lat="47.28983" lon="4.99909">
        <ele>326.18</ele>
        <time>2025-02-23T10:52:56Z</time>
      </trkpt>
      <trkpt lat="47.28992" lon="4.99914">
        <ele>327.57</ele>
        <time>2025-02-23T10:53:01Z</time>
      </trkpt>
      <trkpt lat="47.28999" lon="4.99924">
        <ele>327.59</ele>
        <time>2025-02-23T10:53:10Z</time>
      </trkpt>
      <trkpt lat="47.29007" lon="4.9993">
        <ele>328.78</ele>
        <time>2025-02-23T10:53:17Z</time>
      </trkpt>
      <trkpt lat="47.29015" lon="4.99938">
        <ele>326.62</ele>
        <time>2025-02-23T10:53:27Z</time>
      </trkpt>
      <trkpt lat="47.29024" lon="4.99943">
        <ele>325.16</ele>
        <time>2025-02-23T10:53:37Z</time>
      </trkpt>
      <trkpt lat="47.29033" lon="4.99946">
        <ele>326.65</ele>
        <time>2025-02-23T10:53:43Z</time>
      </trkpt>
      <trkpt lat="47.29042" lon="4.99951">
        <ele>327.41</ele>
        <time>2025-02-23T10:53:52Z</time>
      </trkpt>
      <trkpt lat="47.29051" lon="4.99959">
        <ele>326.75</ele>
        <time>2025-02-23T10:54:03Z</time>
      </trkpt>
      <trkpt lat="47.29059" lon="4.99965">
        <ele>326.62</ele>
        <time>2025-02-23T10:54:08Z</time>
      </trkpt>
      <trkpt lat="47.29069" lon="4.99971">
        <ele>325.6</ele>
        <time>2025-02-23T10:54:18Z</time>
      </trkpt>
      <trkpt lat="47.29077" lon="4.99977">
        <ele>326.86</ele>
        <time>2025-02-23T10:54:29Z</time>
      </trkpt>
      <trkpt lat="47.29085" lon="4.99984">
        <ele>327.81</ele>
        <time>2025-02-23T10:54:36Z</time>
      </trkpt>
      <trkpt lat="47.29091" lon="4.99995">
        <ele>329.72</ele>
        <time>2025-02-23T10:54:43Z</time>
      </trkpt>
      <trkpt lat="47.29101" lon="4.99996">
        <ele>327.86</ele>
        <time>2025-02-23T10:54:54Z</time>
      </trkpt>
      <trkpt lat="47.2911" lon="5">
        <ele>325.61</ele>
        <time>2025-02-23T10:55:04Z</time>
      </trkpt>
      <trkpt lat="47.29119" lon="5.00006">
        <ele>325.47</ele>
        <time>2025-02-23T10:55:09Z</time>
      </trkpt>
      <trkpt lat="47.29128" lon="5.00008">
        <ele>328.56</ele>
        <time>2025-02-23T10:55:20Z</time>
      </trkpt>
      <trkpt lat="47.29138" lon="5.00011">
        <ele>327.02</ele>
        <time>2025-02-23T10:55:29Z</time>
      </trkpt>
      <trkpt lat="47.29148" lon="5.00014">
        <ele>327.66</ele>
        <time>2025-02-23T10:55:38Z</time>
      </trkpt>
      <trkpt lat="47.29157" lon="5.00017">
        <ele>326.43</ele>
        <time>2025-02-23T10:55:45Z</time>
      </trkpt>
      <trkpt lat="47.29166" lon="5.00022">
        <ele>323.92</ele>
        <time>2025-02-23T10:55:52Z</time>
      </trkpt>
      <trkpt lat="47.29175" lon="5.00022">
        <ele>325.85</ele>
        <time>2025-02-23T10:55:59Z</time>
      </trkpt>
      <trkpt lat="47.29183" lon="5.00028">
        <ele>325.36</ele>
        <time>2025-02-23T10:56:10Z</time>
      </trkpt>
      <trkpt lat="47.29191" lon="5.00036">
        <ele>329.73</ele>
        <time>2025-02-23T10:56:19Z</time>
      </trkpt>
      <trkpt lat="47.292" lon="5.00037">
        <ele>327.41</ele>
        <time>2025-02-23T10:56:26Z</time>
      </trkpt>
      <trkpt lat="47.29208" lon="5.00043">
        <ele>328.61</ele>
        <time>2025-02-23T10:56:35Z</time>
      </trkpt>
      <trkpt lat="47.29212" lon="5.00031">
        <ele>330.44</ele>
        <time>2025-02-23T10:56:45Z</time>
      </trkpt>
      <trkpt lat="47.29217" lon="5.00018">
        <ele>333.11</ele>
        <time>2025-02-23T10:56:52Z</time>
      </trkpt>
      <trkpt lat="47.29226" lon="5.00014">
        <ele>333.55</ele>
        <time>2025-02-23T10:57:01Z</time>
      </trkpt>
      <trkpt lat="47.29235" lon="5.00016">
        <ele>337.83</ele>
        <time>2025-02-23T10:57:08Z</time>
      </trkpt>
      <trkpt lat="47.29244" lon="5.00022">
        <ele>334.96</ele>
        <time>2025-02-23T10:57:15Z</time>
      </trkpt>
      <trkpt lat="47.29253" lon="5.00025">
        <ele>332.74</ele>
        <time>2025-02-23T10:57:21Z</time>
      </trkpt>
      <trkpt lat="47.29262" lon="5.00029">
        <ele>329.36</ele>
        <time>2025-02-23T10:57:32Z</time>
      </trkpt>
      <trkpt lat="47.2927" lon="5.00037">
        <ele>328.18</ele>
        <time>2025-02-23T10:57:40Z</time>
      </trkpt>
      <trkpt lat="47.29277" lon="5.00047">
        <ele>330.98</ele>
        <time>2025-02-23T10:57:50Z</time>
      </trkpt>
      <trkpt lat="47.29284" lon="5.00056">
        <ele>330.87</ele>
        <time>2025-02-23T10:57:58Z</time>
      </trkpt>
      <trkpt lat="47.29292" lon="5.00066">
        <ele>331.91</ele>
        <time>2025-02-23T10:58:07Z</time>
      </trkpt>
      <trkpt lat="47.29299" lon="5.00076">
        <ele>329.03</ele>
        <time>2025-02-23T10:58:17Z</time>
      </trkpt>
      <trkpt lat="47.29308" lon="5.00086">
        <ele>329.74</ele>
        <time>2025-02-23T10:58:23Z</time>
      </trkpt>
      <trkpt lat="47.29317" lon="5.00092">
        <ele>328.73</ele>
        <time>2025-02-23T10:58:33Z</time>
      </trkpt>
      <trkpt lat="47.29325" lon="5.00102">
        <ele>332.95</ele>
        <time>2025-02-23T10:58:39Z</time>
      </trkpt>
      <trkpt lat="47.29333" lon="5.00109">
        <ele>330.9</ele>
        <time>2025-02-23T10:58:46Z</time>
      </trkpt>
      <trkpt lat="47.29342" lon="5.00117">
        <ele>334.08</ele>
        <time>2025-02-23T10:58:54Z</time>
      </trkpt>
      <trkpt lat="47.2935" lon="5.00124">
        <ele>336.24</ele>
        <time>2025-02-23T10:58:58Z</time>
      </trkpt>
      <trkpt lat="47.2936" lon="5.00127">
        <ele>333.46</ele>
        <time>2025-02-23T10:59:12Z</time>
      </trkpt>
      <trkpt lat="47.2937" lon="5.00129">
        <ele>331.62</ele>
        <time>2025-02-23T10:59:17Z</time>
      </trkpt>
      <trkpt lat="47.2938" lon="5.00127">
        <ele>325.73</ele>
        <time>2025-02-23T10:59:30Z</time>
      </trkpt>
      <trkpt lat="47.29389" lon="5.00132">
        <ele>326.47</ele>
        <time>2025-02-23T10:59:36Z</time>
      </trkpt>
      <trkpt lat="47.29398" lon="5.00138">
        <ele>326.66</ele>
        <time>2025-02-23T10:59:47Z</time>
      </trkpt>
      <trkpt lat="47.29407" lon="5.00143">
        <ele>322.63</ele>
        <time>2025-02-23T10:59:57Z</time>
      </trkpt>
      <trkpt lat="47.29416" lon="5.00149">
        <ele>323.99</ele>
        <time>2025-02-23T11:00:04Z</time>
      </trkpt>
      <trkpt lat="47.29424" lon="5.00156">
        <ele>327.88</ele>
        <time>2025-02-23T11:00:14Z</time>
      </trkpt>
      <trkpt lat="47.29433" lon="5.00161">
        <ele>330.8</ele>
        <time>2025-02-23T11:00:19Z</time>
      </trkpt>
      <trkpt lat="47.29443" lon="5.00163">
        <ele>325.25</ele>
        <time>2025-02-23T11:00:26Z</time>
      </trkpt>
      <trkpt lat="47.29453" lon="5.00165">
        <ele>326.94</ele>
        <time>2025-02-23T11:00:34Z</time>
      </trkpt>
      <trkpt lat="47.2946" lon="5.00174">
        <ele>332.14</ele>
        <time>2025-02-23T11:00:45Z</time>
      </trkpt>
      <trkpt lat="47.2947" lon="5.00177">
        <ele>331.03</ele>
        <time>2025-02-23T11:00:51Z</time>
      </trkpt>
      <trkpt lat="47.29479" lon="5.00179">
        <ele>327.95</ele>
        <time>2025-02-23T11:00:59Z</time>
      </trkpt>
      <trkpt lat="47.29488" lon="5.00182">
        <ele>325.7</ele>
        <time>2025-02-23T11:01:06Z</time>
      </trkpt>
      <trkpt lat="47.29497" lon="5.00188">
        <ele>328.32</ele>
        <time>2025-02-23T11:01:15Z</time>
      </trkpt>
      <trkpt lat="47.29506" lon="5.00193">
        <ele>328.91</ele>
        <time>2025-02-23T11:01:25Z</time>
      </trkpt>
      <trkpt lat="47.29514" lon="5.00201">
        <ele>328.96</ele>
        <time>2025-02-23T11:01:34Z</time>
      </trkpt>
      <trkpt lat="47.29524" lon="5.002">
        <ele>326.61</ele>
        <time>2025-02-23T11:01:43Z</time>
      </trkpt>
      <trkpt lat="47.29534" lon="5.00196">
        <ele>324.33</ele>
        <time>2025-02-23T11:01:49Z</time>
      </trkpt>
      <trkpt lat="47.29543" lon="5.00197">
        <ele>321.79</ele>
        <time>2025-02-23T11:01:59Z</time>
      </trkpt>
      <trkpt lat="47.29552" lon="5.00188">
        <ele>318.38</ele>
        <time>2025-02-23T11:02:07Z</time>
      </trkpt>
      <trkpt lat="47.29559" lon="5.00181">
        <ele>318.53</ele>
        <time>2025-02-23T11:02:15Z</time>
      </trkpt>
      <trkpt lat="47.29565" lon="5.0017">
        <ele>320.45</ele>
        <time>2025-02-23T11:02:21Z</time>
      </trkpt>
      <trkpt lat="47.29571" lon="5.0016">
        <ele>319.61</ele>
        <time>2025-02-23T11:02:31Z</time>
      </trkpt>
      <trkpt lat="47.29579" lon="5.00148">
        <ele>322.58</ele>
        <time>2025-02-23T11:02:41Z</time>
      </trkpt>
      <trkpt lat="47.29587" lon="5.00137">
        <ele>324.33</ele>
        <time>2025-02-23T11:02:51Z</time>
      </trkpt>
      <trkpt lat="47.29592" lon="5.00124">
        <ele>324.37</ele>
        <time>2025-02-23T11:03:00Z</time>
      </trkpt>
      <trkpt lat="47.29596" lon="5.00112">
        <ele>324.95</ele>
        <time>2025-02-23T11:03:08Z</time>
      </trkpt>
      <trkpt lat="47.29602" lon="5.00101">
        <ele>327.98</ele>
        <time>2025-02-23T11:03:17Z</time>
      </trkpt>
      <trkpt lat="47.29605" lon="5.00088">
        <ele>330.31</ele>
        <time>2025-02-23T11:03:26Z</time>
      </trkpt>
      <trkpt lat="47.29608" lon="5.00074">
        <ele>330.01</ele>
        <time>2025-02-23T11:03:35Z</time>
      </trkpt>
      <trkpt lat="47.29613" lon="5.00061">
        <ele>332.97</ele>
        <time>2025-02-23T11:03:44Z</time>
      </trkpt>
      <trkpt lat="47.29621" lon="5.00056">
        <ele>329.31</ele>
        <time>2025-02-23T11:03:56Z</time>
      </trkpt>
      <trkpt lat="47.29631" lon="5.00057">
        <ele>329.03</ele>
        <time>2025-02-23T11:04:04Z</time>
      </trkpt>
      <trkpt lat="47.29641" lon="5.00059">
        <ele>327.32</ele>
        <time>2025-02-23T11:04:14Z</time>
      </trkpt>
      <trkpt lat="47.29651" lon="5.00062">
        <ele>327.6</ele>
        <time>2025-02-23T11:04:23Z</time>
      </trkpt>
      <trkpt lat="47.29661" lon="5.00064">
        <ele>326.92</ele>
        <time>2025-02-23T11:04:31Z</time>
      </trkpt>
      <trkpt lat="47.2967" lon="5.00067">
        <ele>327.84</ele>
        <time>2025-02-23T11:04:40Z</time>
      </trkpt>
      <trkpt lat="47.2968" lon="5.0007">
        <ele>328.06</ele>
        <time>2025-02-23T11:04:48Z</time>
      </trkpt>
      <trkpt lat="47.29688" lon="5.00074">
        <ele>328.78</ele>
        <time>2025-02-23T11:04:57Z</time>
      </trkpt>
      <trkpt lat="47.29698" lon="5.00077">
        <ele>329.5</ele>
        <time>2025-02-23T11:05:04Z</time>
      </trkpt>
      <trkpt lat="47.29708" lon="5.0008">
        <ele>329.64</ele>
        <time>2025-02-23T11:05:14Z</time>
      </trkpt>
      <trkpt lat="47.29717" lon="5.00084">
        <ele>329.96</ele>
        <time>2025-02-23T11:05:19Z</time>
      </trkpt>
      <trkpt lat="47.29726" lon="5.00086">
        <ele>331.52</ele>
        <time>2025-02-23T11:05:30Z</time>
      </trkpt>
      <trkpt lat="47.29735" lon="5.00087">
        <ele>330.59</ele>
        <time>2025-02-23T11:05:39Z</time>
      </trkpt>
      <trkpt lat="47.29744" lon="5.00089">
        <ele>332.42</ele>
        <time>2025-02-23T11:05:47Z</time>
      </trkpt>
      <trkpt lat="47.29754" lon="5.00093">
        <ele>335.3</ele>
        <time>2025-02-23T11:05:57Z</time>
      </trkpt>
      <trkpt lat="47.29764" lon="5.00097">
        <ele>336.14</ele>
        <time>2025-02-23T11:06:07Z</time>
      </trkpt>
      <trkpt lat="47.29773" lon="5.00102">
        <ele>333.49</ele>
        <time>2025-02-23T11:06:18Z</time>
      </trkpt>
      <trkpt lat="47.29782" lon="5.00105">
        <ele>330.54</ele>
        <time>2025-02-23T11:06:27Z</time>
      </trkpt>
      <trkpt lat="47.29791" lon="5.00104">
        <ele>328.74</ele>
        <time>2025-02-23T11:06:33Z</time>
      </trkpt>
      <trkpt lat="47.298" lon="5.00108">
        <ele>326.21</ele>
        <time>2025-02-23T11:06:44Z</time>
      </trkpt>
      <trkpt lat="47.29809" lon="5.00112">
        <ele>327.66</ele>
        <time>2025-02-23T11:06:53Z</time>
      </trkpt>
      <trkpt lat="47.29819" lon="5.00113">
        <ele>332.35</ele>
        <time>2025-02-23T11:06:59Z</time>
      </trkpt>
      <trkpt lat="47.29828" lon="5.00115">
        <ele>332.44</ele>
        <time>2025-02-23T11:07:06Z</time>
      </trkpt>
      <trkpt lat="47.29837" lon="5.00118">
        <ele>333.43</ele>
        <time>2025-02-23T11:07:15Z</time>
      </trkpt>
      <trkpt lat="47.29847" lon="5.00123">
        <ele>334.39</ele>
        <time>2025-02-23T11:07:28Z</time>
      </trkpt>
      <trkpt lat="47.29856" lon="5.00125">
        <ele>335.19</ele>
        <time>2025-02-23T11:07:36Z</time>
      </trkpt>
      <trkpt lat="47.29865" lon="5.00126">
        <ele>336.61</ele>
        <time>2025-02-23T11:07:44Z</time>
      </trkpt>
      <trkpt lat="47.29874" lon="5.00129">
        <ele>337.93</ele>
        <time>2025-02-23T11:07:52Z</time>
      </trkpt>
      <trkpt lat="47.29883" lon="5.00129">
        <ele>338.74</ele>
        <time>2025-02-23T11:08:01Z</time>
      </trkpt>
      <trkpt lat="47.29894" lon="5.00128">
        <ele>339.97</ele>
        <time>2025-02-23T11:08:10Z</time>
      </trkpt>
      <trkpt lat="47.29903" lon="5.00123">
        <ele>336.84</ele>
        <time>2025-02-23T11:08:21Z</time>
      </trkpt>
      <trkpt lat="47.29913" lon="5.00118">
        <ele>336</ele>
        <time>2025-02-23T11:08:30Z</time>
      </trkpt>
      <trkpt lat="47.29922" lon="5.00119">
        <ele>337.43</ele>
        <time>2025-02-23T11:08:38Z</time>
      </trkpt>
      <trkpt lat="47.29933" lon="5.00121">
        <ele>337.18</ele>
        <time>2025-02-23T11:08:48Z</time>
      </trkpt>
      <trkpt lat="47.29942" lon="5.00124">
        <ele>335.93</ele>
        <time>2025-02-23T11:08:57Z</time>
      </trkpt>
      <trkpt lat="47.29951" lon="5.00122">
        <ele>336.29</ele>
        <time>2025-02-23T11:09:06Z</time>
      </trkpt>
      <trkpt lat="47.2996" lon="5.00123">
        <ele>337.77</ele>
        <time>2025-02-23T11:09:13Z</time>
      </trkpt>
      <trkpt lat="47.2997" lon="5.0012">
        <ele>339.62</ele>
        <time>2025-02-23T11:09:22Z</time>
      </trkpt>
      <trkpt lat="47.2998" lon="5.00119">
        <ele>335.52</ele>
        <time>2025-02-23T11:09:32Z</time>
      </trkpt>
      <trkpt lat="47.29989" lon="5.00118">
        <ele>336.06</ele>
        <time>2025-02-23T11:09:38Z</time>
      </trkpt>
      <trkpt lat="47.29998" lon="5.00121">
        <ele>338.21</ele>
        <time>2025-02-23T11:09:46Z</time>
      </trkpt>
      <trkpt lat="47.30007" lon="5.00123">
        <ele>337.85</ele>
        <time>2025-02-23T11:09:55Z</time>
      </trkpt>
      <trkpt lat="47.30016" lon="5.00129">
        <ele>339.96</ele>
        <time>2025-02-23T11:10:15Z</time>
      </trkpt>
      <trkpt lat="47.30025" lon="5.00127">
        <ele>341.26</ele>
        <time>2025-02-23T11:10:32Z</time>
      </trkpt>
      <trkpt lat="47.30033" lon="5.00136">
        <ele>343.74</ele>
        <time>2025-02-23T11:10:46Z</time>
      </trkpt>
      <trkpt lat="47.30039" lon="5.00147">
        <ele>349.3</ele>
        <time>2025-02-23T11:10:57Z</time>
      </trkpt>
      <trkpt lat="47.30049" lon="5.00152">
        <ele>351.45</ele>
        <time>2025-02-23T11:11:11Z</time>
      </trkpt>
      <trkpt lat="47.30057" lon="5.00159">
        <ele>351.94</ele>
        <time>2025-02-23T11:11:24Z</time>
      </trkpt>
      <trkpt lat="47.30066" lon="5.00165">
        <ele>347.93</ele>
        <time>2025-02-23T11:11:34Z</time>
      </trkpt>
      <trkpt lat="47.30074" lon="5.00171">
        <ele>345.34</ele>
        <time>2025-02-23T11:11:45Z</time>
      </trkpt>
      <trkpt lat="47.30079" lon="5.00183">
        <ele>347.26</ele>
        <time>2025-02-23T11:11:57Z</time>
      </trkpt>
      <trkpt lat="47.30084" lon="5.00195">
        <ele>347.8</ele>
        <time>2025-02-23T11:12:06Z</time>
      </trkpt>
      <trkpt lat="47.30091" lon="5.00205">
        <ele>349.23</ele>
        <time>2025-02-23T11:12:20Z</time>
      </trkpt>
      <trkpt lat="47.301" lon="5.0021">
        <ele>348.6</ele>
        <time>2025-02-23T11:12:28Z</time>
      </trkpt>
      <trkpt lat="47.30106" lon="5.00221">
        <ele>348.58</ele>
        <time>2025-02-23T11:12:38Z</time>
      </trkpt>
      <trkpt lat="47.30114" lon="5.00229">
        <ele>351.17</ele>
        <time>2025-02-23T11:12:55Z</time>
      </trkpt>
      <trkpt lat="47.30123" lon="5.00235">
        <ele>352.1</ele>
        <time>2025-02-23T11:13:05Z</time>
      </trkpt>
      <trkpt lat="47.30133" lon="5.00239">
        <ele>350.58</ele>
        <time>2025-02-23T11:13:15Z</time>
      </trkpt>
      <trkpt lat="47.30142" lon="5.00242">
        <ele>349.18</ele>
        <time>2025-02-23T11:13:24Z</time>
      </trkpt>
      <trkpt lat="47.30151" lon="5.00245">
        <ele>347.3</ele>
        <time>2025-02-23T11:13:33Z</time>
      </trkpt>
      <trkpt lat="47.3016" lon="5.0025">
        <ele>347.44</ele>
        <time>2025-02-23T11:13:42Z</time>
      </trkpt>
      <trkpt lat="47.30169" lon="5.00254">
        <ele>348.6</ele>
        <time>2025-02-23T11:13:54Z</time>
      </trkpt>
      <trkpt lat="47.30176" lon="5.00264">
        <ele>346.09</ele>
        <time>2025-02-23T11:14:06Z</time>
      </trkpt>
      <trkpt lat="47.30186" lon="5.00268">
        <ele>345.59</ele>
        <time>2025-02-23T11:14:17Z</time>
      </trkpt>
      <trkpt lat="47.30195" lon="5.00269">
        <ele>345.07</ele>
        <time>2025-02-23T11:14:28Z</time>
      </trkpt>
      <trkpt lat="47.30204" lon="5.0027">
        <ele>345.25</ele>
        <time>2025-02-23T11:14:39Z</time>
      </trkpt>
      <trkpt lat="47.30213" lon="5.00265">
        <ele>343.6</ele>
        <time>2025-02-23T11:14:50Z</time>
      </trkpt>
      <trkpt lat="47.30223" lon="5.0026">
        <ele>345.45</ele>
        <time>2025-02-23T11:15:01Z</time>
      </trkpt>
      <trkpt lat="47.30232" lon="5.00265">
        <ele>348.16</ele>
        <time>2025-02-23T11:15:11Z</time>
      </trkpt>
      <trkpt lat="47.30241" lon="5.00269">
        <ele>348.49</ele>
        <time>2025-02-23T11:15:22Z</time>
      </trkpt>
      <trkpt lat="47.30251" lon="5.00272">
        <ele>349.55</ele>
        <time>2025-02-23T11:15:32Z</time>
      </trkpt>
      <trkpt lat="47.30261" lon="5.00272">
        <ele>346.91</ele>
        <time>2025-02-23T11:15:43Z</time>
      </trkpt>
      <trkpt lat="47.3027" lon="5.00274">
        <ele>348.37</ele>
        <time>2025-02-23T11:15:51Z</time>
      </trkpt>
      <trkpt lat="47.30279" lon="5.00276">
        <ele>350.44</ele>
        <time>2025-02-23T11:16:00Z</time>
      </trkpt>
      <trkpt lat="47.30288" lon="5.00281">
        <ele>349.81</ele>
        <time>2025-02-23T11:16:08Z</time>
      </trkpt>
      <trkpt lat="47.30297" lon="5.00274">
        <ele>347.71</ele>
        <time>2025-02-23T11:16:18Z</time>
      </trkpt>
      <trkpt lat="47.30306" lon="5.00274">
        <ele>349.48</ele>
        <time>2025-02-23T11:16:28Z</time>
      </trkpt>
      <trkpt lat="47.30316" lon="5.00275">
        <ele>349.42</ele>
        <time>2025-02-23T11:16:51Z</time>
      </trkpt>
      <trkpt lat="47.30325" lon="5.00278">
        <ele>352.45</ele>
        <time>2025-02-23T11:17:03Z</time>
      </trkpt>
      <trkpt lat="47.30334" lon="5.00277">
        <ele>350.61</ele>
        <time>2025-02-23T11:17:10Z</time>
      </trkpt>
      <trkpt lat="47.30343" lon="5.00274">
        <ele>349.56</ele>
        <time>2025-02-23T11:17:18Z</time>
      </trkpt>
      <trkpt lat="47.30347" lon="5.00261">
        <ele>350.9</ele>
        <time>2025-02-23T11:17:31Z</time>
      </trkpt>
      <trkpt lat="47.30356" lon="5.00257">
        <ele>349.75</ele>
        <time>2025-02-23T11:17:37Z</time>
      </trkpt>
      <trkpt lat="47.30366" lon="5.0026">
        <ele>352.99</ele>
        <time>2025-02-23T11:17:44Z</time>
      </trkpt>
      <trkpt lat="47.30376" lon="5.0026">
        <ele>357.11</ele>
        <time>2025-02-23T11:19:02Z</time>
      </trkpt>
      <trkpt lat="47.30384" lon="5.00253">
        <ele>356.94</ele>
        <time>2025-02-23T11:19:13Z</time>
      </trkpt>
      <trkpt lat="47.30395" lon="5.00246">
        <ele>356.18</ele>
        <time>2025-02-23T11:19:25Z</time>
      </trkpt>
      <trkpt lat="47.30403" lon="5.0024">
        <ele>354.08</ele>
        <time>2025-02-23T11:19:34Z</time>
      </trkpt>
      <trkpt lat="47.30413" lon="5.00237">
        <ele>356.14</ele>
        <time>2025-02-23T11:19:43Z</time>
      </trkpt>
      <trkpt lat="47.30421" lon="5.00234">
        <ele>355.73</ele>
        <time>2025-02-23T11:19:51Z</time>
      </trkpt>
      <trkpt lat="47.30431" lon="5.00229">
        <ele>354.25</ele>
        <time>2025-02-23T11:19:59Z</time>
      </trkpt>
      <trkpt lat="47.3044" lon="5.00226">
        <ele>354.56</ele>
        <time>2025-02-23T11:20:07Z</time>
      </trkpt>
      <trkpt lat="47.30449" lon="5.00222">
        <ele>357.27</ele>
        <time>2025-02-23T11:20:16Z</time>
      </trkpt>
      <trkpt lat="47.30454" lon="5.00212">
        <ele>359.27</ele>
        <time>2025-02-23T11:20:26Z</time>
      </trkpt>
      <trkpt lat="47.3045" lon="5.002">
        <ele>357.87</ele>
        <time>2025-02-23T11:20:36Z</time>
      </trkpt>
      <trkpt lat="47.30442" lon="5.00193">
        <ele>356.78</ele>
        <time>2025-02-23T11:20:45Z</time>
      </trkpt>
      <trkpt lat="47.30433" lon="5.0019">
        <ele>357.6</ele>
        <time>2025-02-23T11:20:56Z</time>
      </trkpt>
      <trkpt lat="47.30424" lon="5.00183">
        <ele>361.36</ele>
        <time>2025-02-23T11:21:12Z</time>
      </trkpt>
      <trkpt lat="47.30416" lon="5.00178">
        <ele>364.24</ele>
        <time>2025-02-23T11:21:23Z</time>
      </trkpt>
      <trkpt lat="47.30406" lon="5.00178">
        <ele>365.35</ele>
        <time>2025-02-23T11:21:32Z</time>
      </trkpt>
      <trkpt lat="47.30396" lon="5.00176">
        <ele>364.64</ele>
        <time>2025-02-23T11:21:42Z</time>
      </trkpt>
      <trkpt lat="47.30387" lon="5.00173">
        <ele>364.78</ele>
        <time>2025-02-23T11:21:50Z</time>
      </trkpt>
      <trkpt lat="47.30378" lon="5.00169">
        <ele>364.62</ele>
        <time>2025-02-23T11:21:59Z</time>
      </trkpt>
      <trkpt lat="47.30368" lon="5.00166">
        <ele>366.94</ele>
        <time>2025-02-23T11:22:06Z</time>
      </trkpt>
      <trkpt lat="47.30361" lon="5.00158">
        <ele>366.54</ele>
        <time>2025-02-23T11:22:16Z</time>
      </trkpt>
      <trkpt lat="47.30352" lon="5.00153">
        <ele>365.39</ele>
        <time>2025-02-23T11:22:25Z</time>
      </trkpt>
      <trkpt lat="47.30344" lon="5.00145">
        <ele>368.04</ele>
        <time>2025-02-23T11:22:36Z</time>
      </trkpt>
      <trkpt lat="47.30337" lon="5.00138">
        <ele>366.25</ele>
        <time>2025-02-23T11:22:44Z</time>
      </trkpt>
      <trkpt lat="47.30329" lon="5.0013">
        <ele>367.71</ele>
        <time>2025-02-23T11:22:54Z</time>
      </trkpt>
      <trkpt lat="47.30321" lon="5.00122">
        <ele>369.11</ele>
        <time>2025-02-23T11:23:02Z</time>
      </trkpt>
      <trkpt lat="47.30312" lon="5.00116">
        <ele>366.75</ele>
        <time>2025-02-23T11:23:12Z</time>
      </trkpt>
      <trkpt lat="47.30303" lon="5.00113">
        <ele>365.45</ele>
        <time>2025-02-23T11:23:21Z</time>
      </trkpt>
      <trkpt lat="47.30294" lon="5.00104">
        <ele>366.75</ele>
        <time>2025-02-23T11:23:29Z</time>
      </trkpt>
      <trkpt lat="47.3029" lon="5.00092">
        <ele>370.55</ele>
        <time>2025-02-23T11:23:38Z</time>
      </trkpt>
      <trkpt lat="47.30293" lon="5.00078">
        <ele>375.37</ele>
        <time>2025-02-23T11:23:50Z</time>
      </trkpt>
      <trkpt lat="47.30299" lon="5.00068">
        <ele>373.21</ele>
        <time>2025-02-23T11:24:00Z</time>
      </trkpt>
      <trkpt lat="47.30302" lon="5.00054">
        <ele>370.89</ele>
        <time>2025-02-23T11:24:11Z</time>
      </trkpt>
      <trkpt lat="47.30302" lon="5.00038">
        <ele>369.68</ele>
        <time>2025-02-23T11:24:20Z</time>
      </trkpt>
      <trkpt lat="47.30302" lon="5.00025">
        <ele>372.84</ele>
        <time>2025-02-23T11:24:32Z</time>
      </trkpt>
      <trkpt lat="47.30297" lon="5.00013">
        <ele>375.49</ele>
        <time>2025-02-23T11:24:44Z</time>
      </trkpt>
    </trkseg>
  </trk>
</gpx>